<?xml version="1.0" encoding="UTF-8" standalone="no" ?>
<gpx xmlns="http://www.topografix.com/GPX/1/1" xmlns:xsi="http://www.w3.org/2001/XMLSchema-instance" xsi:schemaLocation="http://www.topografix.com/GPX/1/1 http://www.topografix.com/GPX/1/1/gpx.xsd" version="1.1" creator="VisuGPX - https://www.visugpx.com">
  <metadata>
    <name>Landrecies Walincourt</name>
    <desc><![CDATA[perdu entre troisville et bertry, passage dans les champs et les patures.]]></desc>
  </metadata>
  <trk>
    <name><![CDATA[2015-05-24 11:44:59]]></name>
    <trkseg>
      <trkpt lat="50.12477" lon="3.6783">
        <ele>213.55</ele>
        <time>2015-05-24T07:04:46Z</time>
      </trkpt>
      <trkpt lat="50.12477" lon="3.6783">
        <ele>213.55</ele>
        <time>2015-05-24T07:04:47Z</time>
      </trkpt>
      <trkpt lat="50.12479" lon="3.67826">
        <ele>135.2</ele>
        <time>2015-05-24T07:04:55Z</time>
      </trkpt>
      <trkpt lat="50.12479" lon="3.67826">
        <ele>135.2</ele>
        <time>2015-05-24T07:04:56Z</time>
      </trkpt>
      <trkpt lat="50.12479" lon="3.67827">
        <ele>135.2</ele>
        <time>2015-05-24T07:05:16Z</time>
      </trkpt>
      <trkpt lat="50.12477" lon="3.67821">
        <ele>135.2</ele>
        <time>2015-05-24T07:05:39Z</time>
      </trkpt>
      <trkpt lat="50.12476" lon="3.67818">
        <ele>135.2</ele>
        <time>2015-05-24T07:05:45Z</time>
      </trkpt>
      <trkpt lat="50.12477" lon="3.67822">
        <ele>135.68</ele>
        <time>2015-05-24T07:05:56Z</time>
      </trkpt>
      <trkpt lat="50.12479" lon="3.67823">
        <ele>135.68</ele>
        <time>2015-05-24T07:06:12Z</time>
      </trkpt>
      <trkpt lat="50.12484" lon="3.67822">
        <ele>135.68</ele>
        <time>2015-05-24T07:06:37Z</time>
      </trkpt>
      <trkpt lat="50.12482" lon="3.6782">
        <ele>135.2</ele>
        <time>2015-05-24T07:06:54Z</time>
      </trkpt>
      <trkpt lat="50.1248" lon="3.67818">
        <ele>135.2</ele>
        <time>2015-05-24T07:06:56Z</time>
      </trkpt>
      <trkpt lat="50.12475" lon="3.67807">
        <ele>135.2</ele>
        <time>2015-05-24T07:07:09Z</time>
      </trkpt>
      <trkpt lat="50.12471" lon="3.67801">
        <ele>135.2</ele>
        <time>2015-05-24T07:07:19Z</time>
      </trkpt>
      <trkpt lat="50.12469" lon="3.678">
        <ele>135.2</ele>
        <time>2015-05-24T07:07:21Z</time>
      </trkpt>
      <trkpt lat="50.1246" lon="3.678">
        <ele>135.2</ele>
        <time>2015-05-24T07:07:31Z</time>
      </trkpt>
      <trkpt lat="50.12459" lon="3.67801">
        <ele>135.2</ele>
        <time>2015-05-24T07:07:37Z</time>
      </trkpt>
      <trkpt lat="50.12454" lon="3.67805">
        <ele>135.2</ele>
        <time>2015-05-24T07:07:42Z</time>
      </trkpt>
      <trkpt lat="50.12451" lon="3.67806">
        <ele>135.2</ele>
        <time>2015-05-24T07:07:43Z</time>
      </trkpt>
      <trkpt lat="50.12421" lon="3.6783">
        <ele>135.68</ele>
        <time>2015-05-24T07:07:53Z</time>
      </trkpt>
      <trkpt lat="50.12387" lon="3.67868">
        <ele>135.2</ele>
        <time>2015-05-24T07:08:06Z</time>
      </trkpt>
      <trkpt lat="50.1236" lon="3.67897">
        <ele>135.68</ele>
        <time>2015-05-24T07:08:17Z</time>
      </trkpt>
      <trkpt lat="50.12329" lon="3.67928">
        <ele>135.68</ele>
        <time>2015-05-24T07:08:28Z</time>
      </trkpt>
      <trkpt lat="50.12327" lon="3.67933">
        <ele>135.68</ele>
        <time>2015-05-24T07:08:29Z</time>
      </trkpt>
      <trkpt lat="50.12329" lon="3.67942">
        <ele>135.68</ele>
        <time>2015-05-24T07:08:31Z</time>
      </trkpt>
      <trkpt lat="50.12332" lon="3.67947">
        <ele>135.68</ele>
        <time>2015-05-24T07:08:32Z</time>
      </trkpt>
      <trkpt lat="50.12335" lon="3.68002">
        <ele>135.2</ele>
        <time>2015-05-24T07:08:41Z</time>
      </trkpt>
      <trkpt lat="50.12321" lon="3.68087">
        <ele>135.2</ele>
        <time>2015-05-24T07:08:57Z</time>
      </trkpt>
      <trkpt lat="50.12311" lon="3.68145">
        <ele>135.2</ele>
        <time>2015-05-24T07:09:11Z</time>
      </trkpt>
      <trkpt lat="50.123" lon="3.6819">
        <ele>135.2</ele>
        <time>2015-05-24T07:09:23Z</time>
      </trkpt>
      <trkpt lat="50.12292" lon="3.68208">
        <ele>135.2</ele>
        <time>2015-05-24T07:09:27Z</time>
      </trkpt>
      <trkpt lat="50.12289" lon="3.6821">
        <ele>136.64</ele>
        <time>2015-05-24T07:09:29Z</time>
      </trkpt>
      <trkpt lat="50.12287" lon="3.68208">
        <ele>136.64</ele>
        <time>2015-05-24T07:09:30Z</time>
      </trkpt>
      <trkpt lat="50.12255" lon="3.68168">
        <ele>136.64</ele>
        <time>2015-05-24T07:09:43Z</time>
      </trkpt>
      <trkpt lat="50.12207" lon="3.68103">
        <ele>136.64</ele>
        <time>2015-05-24T07:10:01Z</time>
      </trkpt>
      <trkpt lat="50.12162" lon="3.68042">
        <ele>137.13</ele>
        <time>2015-05-24T07:10:18Z</time>
      </trkpt>
      <trkpt lat="50.12106" lon="3.67969">
        <ele>137.13</ele>
        <time>2015-05-24T07:10:38Z</time>
      </trkpt>
      <trkpt lat="50.12056" lon="3.67902">
        <ele>137.13</ele>
        <time>2015-05-24T07:10:55Z</time>
      </trkpt>
      <trkpt lat="50.1201" lon="3.67839">
        <ele>137.13</ele>
        <time>2015-05-24T07:11:11Z</time>
      </trkpt>
      <trkpt lat="50.11967" lon="3.67781">
        <ele>137.13</ele>
        <time>2015-05-24T07:11:26Z</time>
      </trkpt>
      <trkpt lat="50.11921" lon="3.67717">
        <ele>136.16</ele>
        <time>2015-05-24T07:11:42Z</time>
      </trkpt>
      <trkpt lat="50.11874" lon="3.67657">
        <ele>136.16</ele>
        <time>2015-05-24T07:11:58Z</time>
      </trkpt>
      <trkpt lat="50.11821" lon="3.67585">
        <ele>136.16</ele>
        <time>2015-05-24T07:12:16Z</time>
      </trkpt>
      <trkpt lat="50.11765" lon="3.67509">
        <ele>135.68</ele>
        <time>2015-05-24T07:12:35Z</time>
      </trkpt>
      <trkpt lat="50.11706" lon="3.67429">
        <ele>135.68</ele>
        <time>2015-05-24T07:12:56Z</time>
      </trkpt>
      <trkpt lat="50.11654" lon="3.67356">
        <ele>135.68</ele>
        <time>2015-05-24T07:13:15Z</time>
      </trkpt>
      <trkpt lat="50.11591" lon="3.6727">
        <ele>135.68</ele>
        <time>2015-05-24T07:13:36Z</time>
      </trkpt>
      <trkpt lat="50.11518" lon="3.67171">
        <ele>135.68</ele>
        <time>2015-05-24T07:14:00Z</time>
      </trkpt>
      <trkpt lat="50.11454" lon="3.67083">
        <ele>135.68</ele>
        <time>2015-05-24T07:14:20Z</time>
      </trkpt>
      <trkpt lat="50.11402" lon="3.67011">
        <ele>135.68</ele>
        <time>2015-05-24T07:14:37Z</time>
      </trkpt>
      <trkpt lat="50.11343" lon="3.66931">
        <ele>135.68</ele>
        <time>2015-05-24T07:14:56Z</time>
      </trkpt>
      <trkpt lat="50.11278" lon="3.66835">
        <ele>135.68</ele>
        <time>2015-05-24T07:15:16Z</time>
      </trkpt>
      <trkpt lat="50.1123" lon="3.66725">
        <ele>135.68</ele>
        <time>2015-05-24T07:15:36Z</time>
      </trkpt>
      <trkpt lat="50.11197" lon="3.66639">
        <ele>136.16</ele>
        <time>2015-05-24T07:15:50Z</time>
      </trkpt>
      <trkpt lat="50.11148" lon="3.66518">
        <ele>136.16</ele>
        <time>2015-05-24T07:16:10Z</time>
      </trkpt>
      <trkpt lat="50.11099" lon="3.66397">
        <ele>136.16</ele>
        <time>2015-05-24T07:16:30Z</time>
      </trkpt>
      <trkpt lat="50.11076" lon="3.66278">
        <ele>136.16</ele>
        <time>2015-05-24T07:16:47Z</time>
      </trkpt>
      <trkpt lat="50.11093" lon="3.66177">
        <ele>136.16</ele>
        <time>2015-05-24T07:17:02Z</time>
      </trkpt>
      <trkpt lat="50.11095" lon="3.66171">
        <ele>136.16</ele>
        <time>2015-05-24T07:17:03Z</time>
      </trkpt>
      <trkpt lat="50.11143" lon="3.66069">
        <ele>136.16</ele>
        <time>2015-05-24T07:17:22Z</time>
      </trkpt>
      <trkpt lat="50.11153" lon="3.66048">
        <ele>136.16</ele>
        <time>2015-05-24T07:17:26Z</time>
      </trkpt>
      <trkpt lat="50.11156" lon="3.66043">
        <ele>136.16</ele>
        <time>2015-05-24T07:17:27Z</time>
      </trkpt>
      <trkpt lat="50.11205" lon="3.65941">
        <ele>136.16</ele>
        <time>2015-05-24T07:17:46Z</time>
      </trkpt>
      <trkpt lat="50.11259" lon="3.6583">
        <ele>136.16</ele>
        <time>2015-05-24T07:18:02Z</time>
      </trkpt>
      <trkpt lat="50.11313" lon="3.65717">
        <ele>136.16</ele>
        <time>2015-05-24T07:18:19Z</time>
      </trkpt>
      <trkpt lat="50.11368" lon="3.65604">
        <ele>136.16</ele>
        <time>2015-05-24T07:18:36Z</time>
      </trkpt>
      <trkpt lat="50.11409" lon="3.6551">
        <ele>136.16</ele>
        <time>2015-05-24T07:18:49Z</time>
      </trkpt>
      <trkpt lat="50.11419" lon="3.65464">
        <ele>136.16</ele>
        <time>2015-05-24T07:18:55Z</time>
      </trkpt>
      <trkpt lat="50.11411" lon="3.6534">
        <ele>136.16</ele>
        <time>2015-05-24T07:19:11Z</time>
      </trkpt>
      <trkpt lat="50.11398" lon="3.65297">
        <ele>136.16</ele>
        <time>2015-05-24T07:19:17Z</time>
      </trkpt>
      <trkpt lat="50.11346" lon="3.65191">
        <ele>136.16</ele>
        <time>2015-05-24T07:19:34Z</time>
      </trkpt>
      <trkpt lat="50.11288" lon="3.65097">
        <ele>136.16</ele>
        <time>2015-05-24T07:19:52Z</time>
      </trkpt>
      <trkpt lat="50.11253" lon="3.65038">
        <ele>136.16</ele>
        <time>2015-05-24T07:20:05Z</time>
      </trkpt>
      <trkpt lat="50.11224" lon="3.64991">
        <ele>136.64</ele>
        <time>2015-05-24T07:20:17Z</time>
      </trkpt>
      <trkpt lat="50.11193" lon="3.64941">
        <ele>136.64</ele>
        <time>2015-05-24T07:20:29Z</time>
      </trkpt>
      <trkpt lat="50.11175" lon="3.6491">
        <ele>136.64</ele>
        <time>2015-05-24T07:20:35Z</time>
      </trkpt>
      <trkpt lat="50.11169" lon="3.64901">
        <ele>136.64</ele>
        <time>2015-05-24T07:20:37Z</time>
      </trkpt>
      <trkpt lat="50.11166" lon="3.64895">
        <ele>136.64</ele>
        <time>2015-05-24T07:20:38Z</time>
      </trkpt>
      <trkpt lat="50.11163" lon="3.64889">
        <ele>136.64</ele>
        <time>2015-05-24T07:20:39Z</time>
      </trkpt>
      <trkpt lat="50.11144" lon="3.64859">
        <ele>136.64</ele>
        <time>2015-05-24T07:20:45Z</time>
      </trkpt>
      <trkpt lat="50.1114" lon="3.64853">
        <ele>136.64</ele>
        <time>2015-05-24T07:20:46Z</time>
      </trkpt>
      <trkpt lat="50.11137" lon="3.64848">
        <ele>136.64</ele>
        <time>2015-05-24T07:20:47Z</time>
      </trkpt>
      <trkpt lat="50.11081" lon="3.64756">
        <ele>136.64</ele>
        <time>2015-05-24T07:21:03Z</time>
      </trkpt>
      <trkpt lat="50.11025" lon="3.64681">
        <ele>136.64</ele>
        <time>2015-05-24T07:21:17Z</time>
      </trkpt>
      <trkpt lat="50.11001" lon="3.6466">
        <ele>136.64</ele>
        <time>2015-05-24T07:21:23Z</time>
      </trkpt>
      <trkpt lat="50.10931" lon="3.64599">
        <ele>136.64</ele>
        <time>2015-05-24T07:21:42Z</time>
      </trkpt>
      <trkpt lat="50.10882" lon="3.64556">
        <ele>136.64</ele>
        <time>2015-05-24T07:21:56Z</time>
      </trkpt>
      <trkpt lat="50.10822" lon="3.64504">
        <ele>136.64</ele>
        <time>2015-05-24T07:22:13Z</time>
      </trkpt>
      <trkpt lat="50.10739" lon="3.64433">
        <ele>136.64</ele>
        <time>2015-05-24T07:22:35Z</time>
      </trkpt>
      <trkpt lat="50.1073" lon="3.64424">
        <ele>136.64</ele>
        <time>2015-05-24T07:22:38Z</time>
      </trkpt>
      <trkpt lat="50.1073" lon="3.64421">
        <ele>136.64</ele>
        <time>2015-05-24T07:22:39Z</time>
      </trkpt>
      <trkpt lat="50.10732" lon="3.64413">
        <ele>136.64</ele>
        <time>2015-05-24T07:22:41Z</time>
      </trkpt>
      <trkpt lat="50.10734" lon="3.64405">
        <ele>136.16</ele>
        <time>2015-05-24T07:22:51Z</time>
      </trkpt>
      <trkpt lat="50.10735" lon="3.64405">
        <ele>136.16</ele>
        <time>2015-05-24T07:23:26Z</time>
      </trkpt>
      <trkpt lat="50.10735" lon="3.64403">
        <ele>136.16</ele>
        <time>2015-05-24T07:23:41Z</time>
      </trkpt>
      <trkpt lat="50.10734" lon="3.64403">
        <ele>136.16</ele>
        <time>2015-05-24T07:24:23Z</time>
      </trkpt>
      <trkpt lat="50.10735" lon="3.64406">
        <ele>136.16</ele>
        <time>2015-05-24T07:24:54Z</time>
      </trkpt>
      <trkpt lat="50.10734" lon="3.64404">
        <ele>136.16</ele>
        <time>2015-05-24T07:25:27Z</time>
      </trkpt>
      <trkpt lat="50.10733" lon="3.64403">
        <ele>136.16</ele>
        <time>2015-05-24T07:26:00Z</time>
      </trkpt>
      <trkpt lat="50.10737" lon="3.64396">
        <ele>136.16</ele>
        <time>2015-05-24T07:26:21Z</time>
      </trkpt>
      <trkpt lat="50.10749" lon="3.64347">
        <ele>137.61</ele>
        <time>2015-05-24T07:26:32Z</time>
      </trkpt>
      <trkpt lat="50.10757" lon="3.64288">
        <ele>138.57</ele>
        <time>2015-05-24T07:26:43Z</time>
      </trkpt>
      <trkpt lat="50.10757" lon="3.64284">
        <ele>138.57</ele>
        <time>2015-05-24T07:26:44Z</time>
      </trkpt>
      <trkpt lat="50.10768" lon="3.64282">
        <ele>138.57</ele>
        <time>2015-05-24T07:26:49Z</time>
      </trkpt>
      <trkpt lat="50.10778" lon="3.6429">
        <ele>138.57</ele>
        <time>2015-05-24T07:26:52Z</time>
      </trkpt>
      <trkpt lat="50.10803" lon="3.64285">
        <ele>138.57</ele>
        <time>2015-05-24T07:26:59Z</time>
      </trkpt>
      <trkpt lat="50.10821" lon="3.64299">
        <ele>138.57</ele>
        <time>2015-05-24T07:27:04Z</time>
      </trkpt>
      <trkpt lat="50.10819" lon="3.64265">
        <ele>137.61</ele>
        <time>2015-05-24T07:27:12Z</time>
      </trkpt>
      <trkpt lat="50.10805" lon="3.64169">
        <ele>137.61</ele>
        <time>2015-05-24T07:27:30Z</time>
      </trkpt>
      <trkpt lat="50.10805" lon="3.64074">
        <ele>137.61</ele>
        <time>2015-05-24T07:27:46Z</time>
      </trkpt>
      <trkpt lat="50.10815" lon="3.64025">
        <ele>137.61</ele>
        <time>2015-05-24T07:27:55Z</time>
      </trkpt>
      <trkpt lat="50.10824" lon="3.63943">
        <ele>137.61</ele>
        <time>2015-05-24T07:28:11Z</time>
      </trkpt>
      <trkpt lat="50.10833" lon="3.63894">
        <ele>137.61</ele>
        <time>2015-05-24T07:28:23Z</time>
      </trkpt>
      <trkpt lat="50.10833" lon="3.6389">
        <ele>137.61</ele>
        <time>2015-05-24T07:28:24Z</time>
      </trkpt>
      <trkpt lat="50.10845" lon="3.63877">
        <ele>137.61</ele>
        <time>2015-05-24T07:28:29Z</time>
      </trkpt>
      <trkpt lat="50.10849" lon="3.63876">
        <ele>137.61</ele>
        <time>2015-05-24T07:28:30Z</time>
      </trkpt>
      <trkpt lat="50.10854" lon="3.63876">
        <ele>137.61</ele>
        <time>2015-05-24T07:28:31Z</time>
      </trkpt>
      <trkpt lat="50.10857" lon="3.63874">
        <ele>137.61</ele>
        <time>2015-05-24T07:28:32Z</time>
      </trkpt>
      <trkpt lat="50.1086" lon="3.63872">
        <ele>137.61</ele>
        <time>2015-05-24T07:28:33Z</time>
      </trkpt>
      <trkpt lat="50.10863" lon="3.6387">
        <ele>137.61</ele>
        <time>2015-05-24T07:28:34Z</time>
      </trkpt>
      <trkpt lat="50.10866" lon="3.63869">
        <ele>137.61</ele>
        <time>2015-05-24T07:28:35Z</time>
      </trkpt>
      <trkpt lat="50.10875" lon="3.63865">
        <ele>139.05</ele>
        <time>2015-05-24T07:28:38Z</time>
      </trkpt>
      <trkpt lat="50.10916" lon="3.63841">
        <ele>140.97</ele>
        <time>2015-05-24T07:28:52Z</time>
      </trkpt>
      <trkpt lat="50.10953" lon="3.63826">
        <ele>142.89</ele>
        <time>2015-05-24T07:29:04Z</time>
      </trkpt>
      <trkpt lat="50.10959" lon="3.63818">
        <ele>143.37</ele>
        <time>2015-05-24T07:29:08Z</time>
      </trkpt>
      <trkpt lat="50.10959" lon="3.63814">
        <ele>143.37</ele>
        <time>2015-05-24T07:29:09Z</time>
      </trkpt>
      <trkpt lat="50.10958" lon="3.63809">
        <ele>143.37</ele>
        <time>2015-05-24T07:29:10Z</time>
      </trkpt>
      <trkpt lat="50.10956" lon="3.63804">
        <ele>143.37</ele>
        <time>2015-05-24T07:29:11Z</time>
      </trkpt>
      <trkpt lat="50.10953" lon="3.63798">
        <ele>143.37</ele>
        <time>2015-05-24T07:29:12Z</time>
      </trkpt>
      <trkpt lat="50.10944" lon="3.63779">
        <ele>141.45</ele>
        <time>2015-05-24T07:29:15Z</time>
      </trkpt>
      <trkpt lat="50.10941" lon="3.63772">
        <ele>141.45</ele>
        <time>2015-05-24T07:29:16Z</time>
      </trkpt>
      <trkpt lat="50.10938" lon="3.63766">
        <ele>140.97</ele>
        <time>2015-05-24T07:29:17Z</time>
      </trkpt>
      <trkpt lat="50.10935" lon="3.63759">
        <ele>140.97</ele>
        <time>2015-05-24T07:29:18Z</time>
      </trkpt>
      <trkpt lat="50.10932" lon="3.63753">
        <ele>140.49</ele>
        <time>2015-05-24T07:29:19Z</time>
      </trkpt>
      <trkpt lat="50.10883" lon="3.63654">
        <ele>139.53</ele>
        <time>2015-05-24T07:29:34Z</time>
      </trkpt>
      <trkpt lat="50.10829" lon="3.63558">
        <ele>139.05</ele>
        <time>2015-05-24T07:29:48Z</time>
      </trkpt>
      <trkpt lat="50.10826" lon="3.63552">
        <ele>139.05</ele>
        <time>2015-05-24T07:29:49Z</time>
      </trkpt>
      <trkpt lat="50.1082" lon="3.63543">
        <ele>139.05</ele>
        <time>2015-05-24T07:29:51Z</time>
      </trkpt>
      <trkpt lat="50.10817" lon="3.63538">
        <ele>139.05</ele>
        <time>2015-05-24T07:29:52Z</time>
      </trkpt>
      <trkpt lat="50.10811" lon="3.63526">
        <ele>139.05</ele>
        <time>2015-05-24T07:29:54Z</time>
      </trkpt>
      <trkpt lat="50.10808" lon="3.6352">
        <ele>139.05</ele>
        <time>2015-05-24T07:29:55Z</time>
      </trkpt>
      <trkpt lat="50.10804" lon="3.63514">
        <ele>139.05</ele>
        <time>2015-05-24T07:29:56Z</time>
      </trkpt>
      <trkpt lat="50.10796" lon="3.635">
        <ele>140.49</ele>
        <time>2015-05-24T07:29:58Z</time>
      </trkpt>
      <trkpt lat="50.10778" lon="3.63472">
        <ele>141.93</ele>
        <time>2015-05-24T07:30:02Z</time>
      </trkpt>
      <trkpt lat="50.10728" lon="3.63381">
        <ele>145.3</ele>
        <time>2015-05-24T07:30:16Z</time>
      </trkpt>
      <trkpt lat="50.10693" lon="3.63316">
        <ele>146.74</ele>
        <time>2015-05-24T07:30:28Z</time>
      </trkpt>
      <trkpt lat="50.1069" lon="3.63311">
        <ele>146.74</ele>
        <time>2015-05-24T07:30:29Z</time>
      </trkpt>
      <trkpt lat="50.10687" lon="3.63306">
        <ele>146.74</ele>
        <time>2015-05-24T07:30:30Z</time>
      </trkpt>
      <trkpt lat="50.10661" lon="3.63262">
        <ele>147.22</ele>
        <time>2015-05-24T07:30:40Z</time>
      </trkpt>
      <trkpt lat="50.10658" lon="3.63257">
        <ele>147.22</ele>
        <time>2015-05-24T07:30:41Z</time>
      </trkpt>
      <trkpt lat="50.10609" lon="3.63174">
        <ele>147.22</ele>
        <time>2015-05-24T07:30:58Z</time>
      </trkpt>
      <trkpt lat="50.10585" lon="3.63126">
        <ele>147.22</ele>
        <time>2015-05-24T07:31:07Z</time>
      </trkpt>
      <trkpt lat="50.10578" lon="3.63116">
        <ele>147.22</ele>
        <time>2015-05-24T07:31:09Z</time>
      </trkpt>
      <trkpt lat="50.10575" lon="3.63111">
        <ele>147.22</ele>
        <time>2015-05-24T07:31:10Z</time>
      </trkpt>
      <trkpt lat="50.10567" lon="3.63094">
        <ele>147.22</ele>
        <time>2015-05-24T07:31:13Z</time>
      </trkpt>
      <trkpt lat="50.10564" lon="3.63088">
        <ele>147.22</ele>
        <time>2015-05-24T07:31:14Z</time>
      </trkpt>
      <trkpt lat="50.10558" lon="3.63078">
        <ele>147.22</ele>
        <time>2015-05-24T07:31:16Z</time>
      </trkpt>
      <trkpt lat="50.10554" lon="3.63073">
        <ele>147.22</ele>
        <time>2015-05-24T07:31:17Z</time>
      </trkpt>
      <trkpt lat="50.10551" lon="3.63068">
        <ele>147.22</ele>
        <time>2015-05-24T07:31:18Z</time>
      </trkpt>
      <trkpt lat="50.10512" lon="3.62999">
        <ele>147.22</ele>
        <time>2015-05-24T07:31:31Z</time>
      </trkpt>
      <trkpt lat="50.1051" lon="3.62994">
        <ele>147.22</ele>
        <time>2015-05-24T07:31:32Z</time>
      </trkpt>
      <trkpt lat="50.10504" lon="3.62983">
        <ele>147.22</ele>
        <time>2015-05-24T07:31:34Z</time>
      </trkpt>
      <trkpt lat="50.10498" lon="3.62973">
        <ele>147.22</ele>
        <time>2015-05-24T07:31:36Z</time>
      </trkpt>
      <trkpt lat="50.10487" lon="3.62953">
        <ele>147.22</ele>
        <time>2015-05-24T07:31:40Z</time>
      </trkpt>
      <trkpt lat="50.10483" lon="3.62948">
        <ele>147.22</ele>
        <time>2015-05-24T07:31:41Z</time>
      </trkpt>
      <trkpt lat="50.10481" lon="3.62943">
        <ele>147.22</ele>
        <time>2015-05-24T07:31:42Z</time>
      </trkpt>
      <trkpt lat="50.10478" lon="3.62938">
        <ele>147.22</ele>
        <time>2015-05-24T07:31:43Z</time>
      </trkpt>
      <trkpt lat="50.10475" lon="3.62933">
        <ele>147.22</ele>
        <time>2015-05-24T07:31:44Z</time>
      </trkpt>
      <trkpt lat="50.10451" lon="3.62875">
        <ele>148.18</ele>
        <time>2015-05-24T07:31:55Z</time>
      </trkpt>
      <trkpt lat="50.10426" lon="3.62827">
        <ele>148.66</ele>
        <time>2015-05-24T07:32:05Z</time>
      </trkpt>
      <trkpt lat="50.10391" lon="3.62758">
        <ele>149.14</ele>
        <time>2015-05-24T07:32:20Z</time>
      </trkpt>
      <trkpt lat="50.10367" lon="3.62708">
        <ele>149.14</ele>
        <time>2015-05-24T07:32:31Z</time>
      </trkpt>
      <trkpt lat="50.10364" lon="3.62703">
        <ele>148.66</ele>
        <time>2015-05-24T07:32:32Z</time>
      </trkpt>
      <trkpt lat="50.10359" lon="3.62692">
        <ele>147.7</ele>
        <time>2015-05-24T07:32:34Z</time>
      </trkpt>
      <trkpt lat="50.10342" lon="3.62661">
        <ele>147.22</ele>
        <time>2015-05-24T07:32:40Z</time>
      </trkpt>
      <trkpt lat="50.10304" lon="3.62617">
        <ele>147.22</ele>
        <time>2015-05-24T07:32:51Z</time>
      </trkpt>
      <trkpt lat="50.10301" lon="3.62613">
        <ele>147.22</ele>
        <time>2015-05-24T07:32:52Z</time>
      </trkpt>
      <trkpt lat="50.10292" lon="3.62598">
        <ele>147.22</ele>
        <time>2015-05-24T07:32:55Z</time>
      </trkpt>
      <trkpt lat="50.10262" lon="3.62547">
        <ele>147.22</ele>
        <time>2015-05-24T07:33:05Z</time>
      </trkpt>
      <trkpt lat="50.10254" lon="3.62531">
        <ele>147.22</ele>
        <time>2015-05-24T07:33:08Z</time>
      </trkpt>
      <trkpt lat="50.10201" lon="3.62433">
        <ele>147.22</ele>
        <time>2015-05-24T07:33:27Z</time>
      </trkpt>
      <trkpt lat="50.10198" lon="3.62428">
        <ele>147.22</ele>
        <time>2015-05-24T07:33:28Z</time>
      </trkpt>
      <trkpt lat="50.10195" lon="3.62423">
        <ele>147.22</ele>
        <time>2015-05-24T07:33:29Z</time>
      </trkpt>
      <trkpt lat="50.10192" lon="3.62418">
        <ele>147.22</ele>
        <time>2015-05-24T07:33:30Z</time>
      </trkpt>
      <trkpt lat="50.10189" lon="3.62413">
        <ele>147.22</ele>
        <time>2015-05-24T07:33:31Z</time>
      </trkpt>
      <trkpt lat="50.10135" lon="3.62315">
        <ele>147.22</ele>
        <time>2015-05-24T07:33:50Z</time>
      </trkpt>
      <trkpt lat="50.10106" lon="3.62247">
        <ele>147.22</ele>
        <time>2015-05-24T07:34:02Z</time>
      </trkpt>
      <trkpt lat="50.10105" lon="3.62241">
        <ele>147.22</ele>
        <time>2015-05-24T07:34:03Z</time>
      </trkpt>
      <trkpt lat="50.10105" lon="3.62233">
        <ele>147.22</ele>
        <time>2015-05-24T07:34:04Z</time>
      </trkpt>
      <trkpt lat="50.10105" lon="3.62227">
        <ele>147.22</ele>
        <time>2015-05-24T07:34:05Z</time>
      </trkpt>
      <trkpt lat="50.10106" lon="3.62221">
        <ele>147.22</ele>
        <time>2015-05-24T07:34:06Z</time>
      </trkpt>
      <trkpt lat="50.10107" lon="3.62214">
        <ele>147.22</ele>
        <time>2015-05-24T07:34:07Z</time>
      </trkpt>
      <trkpt lat="50.10107" lon="3.62208">
        <ele>147.22</ele>
        <time>2015-05-24T07:34:08Z</time>
      </trkpt>
      <trkpt lat="50.10107" lon="3.62201">
        <ele>148.18</ele>
        <time>2015-05-24T07:34:09Z</time>
      </trkpt>
      <trkpt lat="50.10091" lon="3.62099">
        <ele>148.66</ele>
        <time>2015-05-24T07:34:26Z</time>
      </trkpt>
      <trkpt lat="50.10069" lon="3.62001">
        <ele>148.66</ele>
        <time>2015-05-24T07:34:42Z</time>
      </trkpt>
      <trkpt lat="50.10051" lon="3.61901">
        <ele>148.66</ele>
        <time>2015-05-24T07:34:57Z</time>
      </trkpt>
      <trkpt lat="50.1005" lon="3.61894">
        <ele>148.66</ele>
        <time>2015-05-24T07:34:58Z</time>
      </trkpt>
      <trkpt lat="50.10039" lon="3.6182">
        <ele>148.66</ele>
        <time>2015-05-24T07:35:09Z</time>
      </trkpt>
      <trkpt lat="50.1002" lon="3.61698">
        <ele>149.62</ele>
        <time>2015-05-24T07:35:28Z</time>
      </trkpt>
      <trkpt lat="50.10009" lon="3.61633">
        <ele>151.06</ele>
        <time>2015-05-24T07:35:40Z</time>
      </trkpt>
      <trkpt lat="50.09999" lon="3.61585">
        <ele>152.51</ele>
        <time>2015-05-24T07:35:50Z</time>
      </trkpt>
      <trkpt lat="50.09989" lon="3.61468">
        <ele>152.99</ele>
        <time>2015-05-24T07:36:09Z</time>
      </trkpt>
      <trkpt lat="50.09989" lon="3.61453">
        <ele>151.54</ele>
        <time>2015-05-24T07:36:11Z</time>
      </trkpt>
      <trkpt lat="50.0999" lon="3.61423">
        <ele>151.06</ele>
        <time>2015-05-24T07:36:15Z</time>
      </trkpt>
      <trkpt lat="50.09995" lon="3.61373">
        <ele>150.1</ele>
        <time>2015-05-24T07:36:25Z</time>
      </trkpt>
      <trkpt lat="50.10002" lon="3.61322">
        <ele>149.14</ele>
        <time>2015-05-24T07:36:35Z</time>
      </trkpt>
      <trkpt lat="50.10001" lon="3.61318">
        <ele>149.14</ele>
        <time>2015-05-24T07:36:36Z</time>
      </trkpt>
      <trkpt lat="50.09997" lon="3.61306">
        <ele>149.14</ele>
        <time>2015-05-24T07:36:40Z</time>
      </trkpt>
      <trkpt lat="50.09997" lon="3.61302">
        <ele>149.14</ele>
        <time>2015-05-24T07:36:41Z</time>
      </trkpt>
      <trkpt lat="50.09997" lon="3.61297">
        <ele>149.14</ele>
        <time>2015-05-24T07:36:42Z</time>
      </trkpt>
      <trkpt lat="50.09996" lon="3.61244">
        <ele>149.14</ele>
        <time>2015-05-24T07:36:52Z</time>
      </trkpt>
      <trkpt lat="50.09995" lon="3.61225">
        <ele>150.58</ele>
        <time>2015-05-24T07:36:56Z</time>
      </trkpt>
      <trkpt lat="50.09991" lon="3.61218">
        <ele>151.06</ele>
        <time>2015-05-24T07:36:58Z</time>
      </trkpt>
      <trkpt lat="50.09989" lon="3.61215">
        <ele>151.06</ele>
        <time>2015-05-24T07:36:59Z</time>
      </trkpt>
      <trkpt lat="50.09986" lon="3.61212">
        <ele>151.54</ele>
        <time>2015-05-24T07:37:00Z</time>
      </trkpt>
      <trkpt lat="50.09952" lon="3.61201">
        <ele>152.51</ele>
        <time>2015-05-24T07:37:11Z</time>
      </trkpt>
      <trkpt lat="50.09917" lon="3.61199">
        <ele>152.99</ele>
        <time>2015-05-24T07:37:23Z</time>
      </trkpt>
      <trkpt lat="50.09885" lon="3.61202">
        <ele>153.47</ele>
        <time>2015-05-24T07:37:34Z</time>
      </trkpt>
      <trkpt lat="50.09864" lon="3.61233">
        <ele>152.03</ele>
        <time>2015-05-24T07:37:43Z</time>
      </trkpt>
      <trkpt lat="50.0986" lon="3.61238">
        <ele>152.03</ele>
        <time>2015-05-24T07:37:44Z</time>
      </trkpt>
      <trkpt lat="50.09858" lon="3.61242">
        <ele>151.54</ele>
        <time>2015-05-24T07:37:45Z</time>
      </trkpt>
      <trkpt lat="50.09857" lon="3.61244">
        <ele>151.54</ele>
        <time>2015-05-24T07:37:46Z</time>
      </trkpt>
      <trkpt lat="50.09843" lon="3.61281">
        <ele>150.58</ele>
        <time>2015-05-24T07:37:57Z</time>
      </trkpt>
      <trkpt lat="50.09834" lon="3.61341">
        <ele>150.1</ele>
        <time>2015-05-24T07:38:08Z</time>
      </trkpt>
      <trkpt lat="50.09832" lon="3.61368">
        <ele>151.54</ele>
        <time>2015-05-24T07:38:13Z</time>
      </trkpt>
      <trkpt lat="50.09822" lon="3.614">
        <ele>152.51</ele>
        <time>2015-05-24T07:38:21Z</time>
      </trkpt>
      <trkpt lat="50.09821" lon="3.61403">
        <ele>152.51</ele>
        <time>2015-05-24T07:38:22Z</time>
      </trkpt>
      <trkpt lat="50.0982" lon="3.61408">
        <ele>152.51</ele>
        <time>2015-05-24T07:38:23Z</time>
      </trkpt>
      <trkpt lat="50.09819" lon="3.61412">
        <ele>152.51</ele>
        <time>2015-05-24T07:38:24Z</time>
      </trkpt>
      <trkpt lat="50.09817" lon="3.61415">
        <ele>152.51</ele>
        <time>2015-05-24T07:38:25Z</time>
      </trkpt>
      <trkpt lat="50.09815" lon="3.61418">
        <ele>152.99</ele>
        <time>2015-05-24T07:38:26Z</time>
      </trkpt>
      <trkpt lat="50.09813" lon="3.61421">
        <ele>152.99</ele>
        <time>2015-05-24T07:38:27Z</time>
      </trkpt>
      <trkpt lat="50.09811" lon="3.61424">
        <ele>152.99</ele>
        <time>2015-05-24T07:38:28Z</time>
      </trkpt>
      <trkpt lat="50.09779" lon="3.61462">
        <ele>152.99</ele>
        <time>2015-05-24T07:38:40Z</time>
      </trkpt>
      <trkpt lat="50.09758" lon="3.61489">
        <ele>152.99</ele>
        <time>2015-05-24T07:38:49Z</time>
      </trkpt>
      <trkpt lat="50.09754" lon="3.61489">
        <ele>152.99</ele>
        <time>2015-05-24T07:38:50Z</time>
      </trkpt>
      <trkpt lat="50.09751" lon="3.61487">
        <ele>152.99</ele>
        <time>2015-05-24T07:38:51Z</time>
      </trkpt>
      <trkpt lat="50.09732" lon="3.61453">
        <ele>152.99</ele>
        <time>2015-05-24T07:39:01Z</time>
      </trkpt>
      <trkpt lat="50.09709" lon="3.61393">
        <ele>153.47</ele>
        <time>2015-05-24T07:39:12Z</time>
      </trkpt>
      <trkpt lat="50.09686" lon="3.61329">
        <ele>153.47</ele>
        <time>2015-05-24T07:39:22Z</time>
      </trkpt>
      <trkpt lat="50.09684" lon="3.61323">
        <ele>153.47</ele>
        <time>2015-05-24T07:39:23Z</time>
      </trkpt>
      <trkpt lat="50.09673" lon="3.61293">
        <ele>153.47</ele>
        <time>2015-05-24T07:39:29Z</time>
      </trkpt>
      <trkpt lat="50.09661" lon="3.61242">
        <ele>153.47</ele>
        <time>2015-05-24T07:39:40Z</time>
      </trkpt>
      <trkpt lat="50.09641" lon="3.61182">
        <ele>153.47</ele>
        <time>2015-05-24T07:39:52Z</time>
      </trkpt>
      <trkpt lat="50.09626" lon="3.6113">
        <ele>153.47</ele>
        <time>2015-05-24T07:40:02Z</time>
      </trkpt>
      <trkpt lat="50.09621" lon="3.61113">
        <ele>152.51</ele>
        <time>2015-05-24T07:40:05Z</time>
      </trkpt>
      <trkpt lat="50.09606" lon="3.61039">
        <ele>150.1</ele>
        <time>2015-05-24T07:40:16Z</time>
      </trkpt>
      <trkpt lat="50.09605" lon="3.61031">
        <ele>149.14</ele>
        <time>2015-05-24T07:40:17Z</time>
      </trkpt>
      <trkpt lat="50.09603" lon="3.61022">
        <ele>149.14</ele>
        <time>2015-05-24T07:40:18Z</time>
      </trkpt>
      <trkpt lat="50.09602" lon="3.61015">
        <ele>149.14</ele>
        <time>2015-05-24T07:40:19Z</time>
      </trkpt>
      <trkpt lat="50.09592" lon="3.60963">
        <ele>148.66</ele>
        <time>2015-05-24T07:40:26Z</time>
      </trkpt>
      <trkpt lat="50.09584" lon="3.60929">
        <ele>148.18</ele>
        <time>2015-05-24T07:40:31Z</time>
      </trkpt>
      <trkpt lat="50.09585" lon="3.60922">
        <ele>148.18</ele>
        <time>2015-05-24T07:40:32Z</time>
      </trkpt>
      <trkpt lat="50.09591" lon="3.60913">
        <ele>147.7</ele>
        <time>2015-05-24T07:40:34Z</time>
      </trkpt>
      <trkpt lat="50.09626" lon="3.60894">
        <ele>150.1</ele>
        <time>2015-05-24T07:40:45Z</time>
      </trkpt>
      <trkpt lat="50.0965" lon="3.60869">
        <ele>152.03</ele>
        <time>2015-05-24T07:40:54Z</time>
      </trkpt>
      <trkpt lat="50.09674" lon="3.60843">
        <ele>152.99</ele>
        <time>2015-05-24T07:41:03Z</time>
      </trkpt>
      <trkpt lat="50.09679" lon="3.60838">
        <ele>152.99</ele>
        <time>2015-05-24T07:41:05Z</time>
      </trkpt>
      <trkpt lat="50.09682" lon="3.60831">
        <ele>153.47</ele>
        <time>2015-05-24T07:41:07Z</time>
      </trkpt>
      <trkpt lat="50.09688" lon="3.60823">
        <ele>153.95</ele>
        <time>2015-05-24T07:41:09Z</time>
      </trkpt>
      <trkpt lat="50.09689" lon="3.60818">
        <ele>153.95</ele>
        <time>2015-05-24T07:41:10Z</time>
      </trkpt>
      <trkpt lat="50.0969" lon="3.60812">
        <ele>153.95</ele>
        <time>2015-05-24T07:41:11Z</time>
      </trkpt>
      <trkpt lat="50.09691" lon="3.60806">
        <ele>153.95</ele>
        <time>2015-05-24T07:41:12Z</time>
      </trkpt>
      <trkpt lat="50.09693" lon="3.60799">
        <ele>153.95</ele>
        <time>2015-05-24T07:41:13Z</time>
      </trkpt>
      <trkpt lat="50.09694" lon="3.60794">
        <ele>153.95</ele>
        <time>2015-05-24T07:41:14Z</time>
      </trkpt>
      <trkpt lat="50.09697" lon="3.60789">
        <ele>153.95</ele>
        <time>2015-05-24T07:41:15Z</time>
      </trkpt>
      <trkpt lat="50.09699" lon="3.60784">
        <ele>153.95</ele>
        <time>2015-05-24T07:41:16Z</time>
      </trkpt>
      <trkpt lat="50.09721" lon="3.60725">
        <ele>153.95</ele>
        <time>2015-05-24T07:41:27Z</time>
      </trkpt>
      <trkpt lat="50.09747" lon="3.60646">
        <ele>152.51</ele>
        <time>2015-05-24T07:41:40Z</time>
      </trkpt>
      <trkpt lat="50.09749" lon="3.60639">
        <ele>152.51</ele>
        <time>2015-05-24T07:41:41Z</time>
      </trkpt>
      <trkpt lat="50.09751" lon="3.60632">
        <ele>152.51</ele>
        <time>2015-05-24T07:41:42Z</time>
      </trkpt>
      <trkpt lat="50.0978" lon="3.60576">
        <ele>152.51</ele>
        <time>2015-05-24T07:41:53Z</time>
      </trkpt>
      <trkpt lat="50.09793" lon="3.60559">
        <ele>152.03</ele>
        <time>2015-05-24T07:41:57Z</time>
      </trkpt>
      <trkpt lat="50.09798" lon="3.60558">
        <ele>152.03</ele>
        <time>2015-05-24T07:41:58Z</time>
      </trkpt>
      <trkpt lat="50.09803" lon="3.60559">
        <ele>152.03</ele>
        <time>2015-05-24T07:41:59Z</time>
      </trkpt>
      <trkpt lat="50.09812" lon="3.60563">
        <ele>152.03</ele>
        <time>2015-05-24T07:42:01Z</time>
      </trkpt>
      <trkpt lat="50.09816" lon="3.60565">
        <ele>152.03</ele>
        <time>2015-05-24T07:42:02Z</time>
      </trkpt>
      <trkpt lat="50.0982" lon="3.60564">
        <ele>152.03</ele>
        <time>2015-05-24T07:42:03Z</time>
      </trkpt>
      <trkpt lat="50.09823" lon="3.60564">
        <ele>152.03</ele>
        <time>2015-05-24T07:42:04Z</time>
      </trkpt>
      <trkpt lat="50.09826" lon="3.60562">
        <ele>152.03</ele>
        <time>2015-05-24T07:42:05Z</time>
      </trkpt>
      <trkpt lat="50.09849" lon="3.60537">
        <ele>152.99</ele>
        <time>2015-05-24T07:42:12Z</time>
      </trkpt>
      <trkpt lat="50.09857" lon="3.60527">
        <ele>152.99</ele>
        <time>2015-05-24T07:42:14Z</time>
      </trkpt>
      <trkpt lat="50.09861" lon="3.60521">
        <ele>152.99</ele>
        <time>2015-05-24T07:42:15Z</time>
      </trkpt>
      <trkpt lat="50.09867" lon="3.60508">
        <ele>152.99</ele>
        <time>2015-05-24T07:42:17Z</time>
      </trkpt>
      <trkpt lat="50.09875" lon="3.60497">
        <ele>152.03</ele>
        <time>2015-05-24T07:42:19Z</time>
      </trkpt>
      <trkpt lat="50.09879" lon="3.60492">
        <ele>152.03</ele>
        <time>2015-05-24T07:42:20Z</time>
      </trkpt>
      <trkpt lat="50.09883" lon="3.60485">
        <ele>152.03</ele>
        <time>2015-05-24T07:42:21Z</time>
      </trkpt>
      <trkpt lat="50.09893" lon="3.60464">
        <ele>151.06</ele>
        <time>2015-05-24T07:42:24Z</time>
      </trkpt>
      <trkpt lat="50.09897" lon="3.60457">
        <ele>150.58</ele>
        <time>2015-05-24T07:42:25Z</time>
      </trkpt>
      <trkpt lat="50.09899" lon="3.60449">
        <ele>150.58</ele>
        <time>2015-05-24T07:42:26Z</time>
      </trkpt>
      <trkpt lat="50.09897" lon="3.60433">
        <ele>150.1</ele>
        <time>2015-05-24T07:42:28Z</time>
      </trkpt>
      <trkpt lat="50.09891" lon="3.60402">
        <ele>149.14</ele>
        <time>2015-05-24T07:42:32Z</time>
      </trkpt>
      <trkpt lat="50.09892" lon="3.60393">
        <ele>149.14</ele>
        <time>2015-05-24T07:42:33Z</time>
      </trkpt>
      <trkpt lat="50.09894" lon="3.60384">
        <ele>148.66</ele>
        <time>2015-05-24T07:42:34Z</time>
      </trkpt>
      <trkpt lat="50.09897" lon="3.60376">
        <ele>148.66</ele>
        <time>2015-05-24T07:42:35Z</time>
      </trkpt>
      <trkpt lat="50.099" lon="3.60366">
        <ele>148.66</ele>
        <time>2015-05-24T07:42:36Z</time>
      </trkpt>
      <trkpt lat="50.09902" lon="3.60359">
        <ele>148.18</ele>
        <time>2015-05-24T07:42:37Z</time>
      </trkpt>
      <trkpt lat="50.09905" lon="3.6035">
        <ele>148.66</ele>
        <time>2015-05-24T07:42:38Z</time>
      </trkpt>
      <trkpt lat="50.09907" lon="3.60342">
        <ele>147.7</ele>
        <time>2015-05-24T07:42:39Z</time>
      </trkpt>
      <trkpt lat="50.09908" lon="3.60334">
        <ele>147.7</ele>
        <time>2015-05-24T07:42:40Z</time>
      </trkpt>
      <trkpt lat="50.09915" lon="3.60295">
        <ele>145.78</ele>
        <time>2015-05-24T07:42:44Z</time>
      </trkpt>
      <trkpt lat="50.09914" lon="3.60286">
        <ele>145.78</ele>
        <time>2015-05-24T07:42:45Z</time>
      </trkpt>
      <trkpt lat="50.09911" lon="3.60276">
        <ele>145.78</ele>
        <time>2015-05-24T07:42:46Z</time>
      </trkpt>
      <trkpt lat="50.0991" lon="3.60267">
        <ele>145.3</ele>
        <time>2015-05-24T07:42:47Z</time>
      </trkpt>
      <trkpt lat="50.09907" lon="3.60258">
        <ele>145.3</ele>
        <time>2015-05-24T07:42:48Z</time>
      </trkpt>
      <trkpt lat="50.09904" lon="3.60249">
        <ele>145.3</ele>
        <time>2015-05-24T07:42:49Z</time>
      </trkpt>
      <trkpt lat="50.09902" lon="3.6024">
        <ele>144.34</ele>
        <time>2015-05-24T07:42:50Z</time>
      </trkpt>
      <trkpt lat="50.09893" lon="3.60203">
        <ele>143.37</ele>
        <time>2015-05-24T07:42:54Z</time>
      </trkpt>
      <trkpt lat="50.09892" lon="3.60194">
        <ele>143.37</ele>
        <time>2015-05-24T07:42:55Z</time>
      </trkpt>
      <trkpt lat="50.09891" lon="3.60184">
        <ele>142.41</ele>
        <time>2015-05-24T07:42:56Z</time>
      </trkpt>
      <trkpt lat="50.09889" lon="3.60174">
        <ele>142.41</ele>
        <time>2015-05-24T07:42:57Z</time>
      </trkpt>
      <trkpt lat="50.09887" lon="3.60166">
        <ele>142.41</ele>
        <time>2015-05-24T07:42:58Z</time>
      </trkpt>
      <trkpt lat="50.09886" lon="3.60158">
        <ele>142.41</ele>
        <time>2015-05-24T07:42:59Z</time>
      </trkpt>
      <trkpt lat="50.09884" lon="3.6015">
        <ele>142.41</ele>
        <time>2015-05-24T07:43:00Z</time>
      </trkpt>
      <trkpt lat="50.09884" lon="3.60142">
        <ele>141.45</ele>
        <time>2015-05-24T07:43:01Z</time>
      </trkpt>
      <trkpt lat="50.09885" lon="3.60135">
        <ele>140.97</ele>
        <time>2015-05-24T07:43:02Z</time>
      </trkpt>
      <trkpt lat="50.09888" lon="3.60129">
        <ele>140.97</ele>
        <time>2015-05-24T07:43:03Z</time>
      </trkpt>
      <trkpt lat="50.09896" lon="3.60117">
        <ele>140.97</ele>
        <time>2015-05-24T07:43:05Z</time>
      </trkpt>
      <trkpt lat="50.09901" lon="3.6011">
        <ele>140.97</ele>
        <time>2015-05-24T07:43:06Z</time>
      </trkpt>
      <trkpt lat="50.09905" lon="3.60104">
        <ele>140.97</ele>
        <time>2015-05-24T07:43:07Z</time>
      </trkpt>
      <trkpt lat="50.09909" lon="3.60098">
        <ele>140.49</ele>
        <time>2015-05-24T07:43:08Z</time>
      </trkpt>
      <trkpt lat="50.09913" lon="3.6009">
        <ele>140.49</ele>
        <time>2015-05-24T07:43:09Z</time>
      </trkpt>
      <trkpt lat="50.09921" lon="3.60075">
        <ele>140.49</ele>
        <time>2015-05-24T07:43:11Z</time>
      </trkpt>
      <trkpt lat="50.09925" lon="3.60069">
        <ele>140.49</ele>
        <time>2015-05-24T07:43:12Z</time>
      </trkpt>
      <trkpt lat="50.09929" lon="3.60062">
        <ele>140.49</ele>
        <time>2015-05-24T07:43:13Z</time>
      </trkpt>
      <trkpt lat="50.09939" lon="3.60045">
        <ele>140.49</ele>
        <time>2015-05-24T07:43:16Z</time>
      </trkpt>
      <trkpt lat="50.09943" lon="3.60039">
        <ele>140.49</ele>
        <time>2015-05-24T07:43:17Z</time>
      </trkpt>
      <trkpt lat="50.09947" lon="3.60034">
        <ele>140.49</ele>
        <time>2015-05-24T07:43:18Z</time>
      </trkpt>
      <trkpt lat="50.09951" lon="3.60028">
        <ele>140.01</ele>
        <time>2015-05-24T07:43:19Z</time>
      </trkpt>
      <trkpt lat="50.09956" lon="3.60022">
        <ele>140.01</ele>
        <time>2015-05-24T07:43:20Z</time>
      </trkpt>
      <trkpt lat="50.09961" lon="3.60017">
        <ele>140.01</ele>
        <time>2015-05-24T07:43:21Z</time>
      </trkpt>
      <trkpt lat="50.09965" lon="3.60012">
        <ele>140.01</ele>
        <time>2015-05-24T07:43:22Z</time>
      </trkpt>
      <trkpt lat="50.09969" lon="3.60007">
        <ele>140.01</ele>
        <time>2015-05-24T07:43:23Z</time>
      </trkpt>
      <trkpt lat="50.09973" lon="3.60003">
        <ele>140.01</ele>
        <time>2015-05-24T07:43:24Z</time>
      </trkpt>
      <trkpt lat="50.09977" lon="3.6">
        <ele>140.97</ele>
        <time>2015-05-24T07:43:25Z</time>
      </trkpt>
      <trkpt lat="50.09981" lon="3.59997">
        <ele>140.97</ele>
        <time>2015-05-24T07:43:26Z</time>
      </trkpt>
      <trkpt lat="50.09985" lon="3.59994">
        <ele>140.97</ele>
        <time>2015-05-24T07:43:27Z</time>
      </trkpt>
      <trkpt lat="50.09989" lon="3.59991">
        <ele>140.97</ele>
        <time>2015-05-24T07:43:28Z</time>
      </trkpt>
      <trkpt lat="50.09991" lon="3.59986">
        <ele>140.97</ele>
        <time>2015-05-24T07:43:29Z</time>
      </trkpt>
      <trkpt lat="50.09992" lon="3.59982">
        <ele>140.97</ele>
        <time>2015-05-24T07:43:30Z</time>
      </trkpt>
      <trkpt lat="50.09993" lon="3.59976">
        <ele>140.97</ele>
        <time>2015-05-24T07:43:31Z</time>
      </trkpt>
      <trkpt lat="50.09994" lon="3.59971">
        <ele>140.97</ele>
        <time>2015-05-24T07:43:32Z</time>
      </trkpt>
      <trkpt lat="50.09995" lon="3.59952">
        <ele>140.97</ele>
        <time>2015-05-24T07:43:35Z</time>
      </trkpt>
      <trkpt lat="50.09996" lon="3.59944">
        <ele>140.97</ele>
        <time>2015-05-24T07:43:36Z</time>
      </trkpt>
      <trkpt lat="50.09998" lon="3.5993">
        <ele>140.97</ele>
        <time>2015-05-24T07:43:38Z</time>
      </trkpt>
      <trkpt lat="50.1" lon="3.59923">
        <ele>140.97</ele>
        <time>2015-05-24T07:43:39Z</time>
      </trkpt>
      <trkpt lat="50.10017" lon="3.59872">
        <ele>140.97</ele>
        <time>2015-05-24T07:43:47Z</time>
      </trkpt>
      <trkpt lat="50.10019" lon="3.59859">
        <ele>140.97</ele>
        <time>2015-05-24T07:43:49Z</time>
      </trkpt>
      <trkpt lat="50.10021" lon="3.59844">
        <ele>140.97</ele>
        <time>2015-05-24T07:43:51Z</time>
      </trkpt>
      <trkpt lat="50.10029" lon="3.5981">
        <ele>140.97</ele>
        <time>2015-05-24T07:43:56Z</time>
      </trkpt>
      <trkpt lat="50.10031" lon="3.59803">
        <ele>140.97</ele>
        <time>2015-05-24T07:43:57Z</time>
      </trkpt>
      <trkpt lat="50.10038" lon="3.59776">
        <ele>140.97</ele>
        <time>2015-05-24T07:44:01Z</time>
      </trkpt>
      <trkpt lat="50.10052" lon="3.59717">
        <ele>140.97</ele>
        <time>2015-05-24T07:44:10Z</time>
      </trkpt>
      <trkpt lat="50.10078" lon="3.59613">
        <ele>140.97</ele>
        <time>2015-05-24T07:44:25Z</time>
      </trkpt>
      <trkpt lat="50.1009" lon="3.59553">
        <ele>141.45</ele>
        <time>2015-05-24T07:44:34Z</time>
      </trkpt>
      <trkpt lat="50.10082" lon="3.5944">
        <ele>141.45</ele>
        <time>2015-05-24T07:44:50Z</time>
      </trkpt>
      <trkpt lat="50.10076" lon="3.59383">
        <ele>141.93</ele>
        <time>2015-05-24T07:44:58Z</time>
      </trkpt>
      <trkpt lat="50.10074" lon="3.59347">
        <ele>141.93</ele>
        <time>2015-05-24T07:45:03Z</time>
      </trkpt>
      <trkpt lat="50.10075" lon="3.59244">
        <ele>141.93</ele>
        <time>2015-05-24T07:45:16Z</time>
      </trkpt>
      <trkpt lat="50.10086" lon="3.59165">
        <ele>141.93</ele>
        <time>2015-05-24T07:45:26Z</time>
      </trkpt>
      <trkpt lat="50.10091" lon="3.59135">
        <ele>140.49</ele>
        <time>2015-05-24T07:45:31Z</time>
      </trkpt>
      <trkpt lat="50.10091" lon="3.59133">
        <ele>140.49</ele>
        <time>2015-05-24T07:45:32Z</time>
      </trkpt>
      <trkpt lat="50.10089" lon="3.59134">
        <ele>140.49</ele>
        <time>2015-05-24T07:45:33Z</time>
      </trkpt>
      <trkpt lat="50.10089" lon="3.59137">
        <ele>140.49</ele>
        <time>2015-05-24T07:45:34Z</time>
      </trkpt>
      <trkpt lat="50.10088" lon="3.59142">
        <ele>140.49</ele>
        <time>2015-05-24T07:45:35Z</time>
      </trkpt>
      <trkpt lat="50.10088" lon="3.59147">
        <ele>140.49</ele>
        <time>2015-05-24T07:45:36Z</time>
      </trkpt>
      <trkpt lat="50.10087" lon="3.59154">
        <ele>140.49</ele>
        <time>2015-05-24T07:45:37Z</time>
      </trkpt>
      <trkpt lat="50.10086" lon="3.59162">
        <ele>140.49</ele>
        <time>2015-05-24T07:45:38Z</time>
      </trkpt>
      <trkpt lat="50.10078" lon="3.59248">
        <ele>140.49</ele>
        <time>2015-05-24T07:45:48Z</time>
      </trkpt>
      <trkpt lat="50.10077" lon="3.59247">
        <ele>140.49</ele>
        <time>2015-05-24T07:45:54Z</time>
      </trkpt>
      <trkpt lat="50.10076" lon="3.59242">
        <ele>140.49</ele>
        <time>2015-05-24T07:45:56Z</time>
      </trkpt>
      <trkpt lat="50.10077" lon="3.59238">
        <ele>140.49</ele>
        <time>2015-05-24T07:45:57Z</time>
      </trkpt>
      <trkpt lat="50.10077" lon="3.59233">
        <ele>140.49</ele>
        <time>2015-05-24T07:45:58Z</time>
      </trkpt>
      <trkpt lat="50.10078" lon="3.59228">
        <ele>140.49</ele>
        <time>2015-05-24T07:45:59Z</time>
      </trkpt>
      <trkpt lat="50.10078" lon="3.59222">
        <ele>140.49</ele>
        <time>2015-05-24T07:46:00Z</time>
      </trkpt>
      <trkpt lat="50.10085" lon="3.59172">
        <ele>140.49</ele>
        <time>2015-05-24T07:46:07Z</time>
      </trkpt>
      <trkpt lat="50.1009" lon="3.59143">
        <ele>140.49</ele>
        <time>2015-05-24T07:46:11Z</time>
      </trkpt>
      <trkpt lat="50.1009" lon="3.59136">
        <ele>140.49</ele>
        <time>2015-05-24T07:46:12Z</time>
      </trkpt>
      <trkpt lat="50.10091" lon="3.59129">
        <ele>140.49</ele>
        <time>2015-05-24T07:46:13Z</time>
      </trkpt>
      <trkpt lat="50.10092" lon="3.59122">
        <ele>140.49</ele>
        <time>2015-05-24T07:46:14Z</time>
      </trkpt>
      <trkpt lat="50.10094" lon="3.59116">
        <ele>140.49</ele>
        <time>2015-05-24T07:46:15Z</time>
      </trkpt>
      <trkpt lat="50.10095" lon="3.59109">
        <ele>140.49</ele>
        <time>2015-05-24T07:46:16Z</time>
      </trkpt>
      <trkpt lat="50.101" lon="3.5908">
        <ele>140.49</ele>
        <time>2015-05-24T07:46:20Z</time>
      </trkpt>
      <trkpt lat="50.10118" lon="3.58969">
        <ele>140.01</ele>
        <time>2015-05-24T07:46:36Z</time>
      </trkpt>
      <trkpt lat="50.10139" lon="3.58832">
        <ele>139.05</ele>
        <time>2015-05-24T07:46:54Z</time>
      </trkpt>
      <trkpt lat="50.10149" lon="3.58757">
        <ele>138.09</ele>
        <time>2015-05-24T07:47:03Z</time>
      </trkpt>
      <trkpt lat="50.10149" lon="3.5874">
        <ele>137.61</ele>
        <time>2015-05-24T07:47:05Z</time>
      </trkpt>
      <trkpt lat="50.1015" lon="3.58683">
        <ele>136.16</ele>
        <time>2015-05-24T07:47:12Z</time>
      </trkpt>
      <trkpt lat="50.10156" lon="3.58537">
        <ele>133.76</ele>
        <time>2015-05-24T07:47:29Z</time>
      </trkpt>
      <trkpt lat="50.10172" lon="3.58415">
        <ele>130.88</ele>
        <time>2015-05-24T07:47:43Z</time>
      </trkpt>
      <trkpt lat="50.10173" lon="3.58406">
        <ele>130.88</ele>
        <time>2015-05-24T07:47:44Z</time>
      </trkpt>
      <trkpt lat="50.10175" lon="3.58398">
        <ele>129.92</ele>
        <time>2015-05-24T07:47:45Z</time>
      </trkpt>
      <trkpt lat="50.10193" lon="3.58312">
        <ele>127.03</ele>
        <time>2015-05-24T07:47:54Z</time>
      </trkpt>
      <trkpt lat="50.10213" lon="3.58208">
        <ele>123.67</ele>
        <time>2015-05-24T07:48:03Z</time>
      </trkpt>
      <trkpt lat="50.10217" lon="3.58156">
        <ele>121.74</ele>
        <time>2015-05-24T07:48:07Z</time>
      </trkpt>
      <trkpt lat="50.10216" lon="3.58143">
        <ele>121.26</ele>
        <time>2015-05-24T07:48:08Z</time>
      </trkpt>
      <trkpt lat="50.10215" lon="3.58129">
        <ele>121.26</ele>
        <time>2015-05-24T07:48:09Z</time>
      </trkpt>
      <trkpt lat="50.10204" lon="3.58055">
        <ele>119.82</ele>
        <time>2015-05-24T07:48:15Z</time>
      </trkpt>
      <trkpt lat="50.10204" lon="3.58043">
        <ele>119.82</ele>
        <time>2015-05-24T07:48:16Z</time>
      </trkpt>
      <trkpt lat="50.10206" lon="3.58031">
        <ele>119.82</ele>
        <time>2015-05-24T07:48:17Z</time>
      </trkpt>
      <trkpt lat="50.10208" lon="3.58021">
        <ele>119.82</ele>
        <time>2015-05-24T07:48:18Z</time>
      </trkpt>
      <trkpt lat="50.10211" lon="3.58012">
        <ele>119.34</ele>
        <time>2015-05-24T07:48:19Z</time>
      </trkpt>
      <trkpt lat="50.10215" lon="3.57997">
        <ele>118.86</ele>
        <time>2015-05-24T07:48:21Z</time>
      </trkpt>
      <trkpt lat="50.10218" lon="3.57983">
        <ele>118.38</ele>
        <time>2015-05-24T07:48:23Z</time>
      </trkpt>
      <trkpt lat="50.1022" lon="3.57977">
        <ele>118.38</ele>
        <time>2015-05-24T07:48:24Z</time>
      </trkpt>
      <trkpt lat="50.10222" lon="3.57973">
        <ele>118.38</ele>
        <time>2015-05-24T07:48:25Z</time>
      </trkpt>
      <trkpt lat="50.10224" lon="3.57966">
        <ele>117.9</ele>
        <time>2015-05-24T07:48:27Z</time>
      </trkpt>
      <trkpt lat="50.10224" lon="3.57962">
        <ele>117.42</ele>
        <time>2015-05-24T07:48:28Z</time>
      </trkpt>
      <trkpt lat="50.10224" lon="3.57959">
        <ele>117.42</ele>
        <time>2015-05-24T07:48:29Z</time>
      </trkpt>
      <trkpt lat="50.10223" lon="3.57956">
        <ele>117.42</ele>
        <time>2015-05-24T07:48:30Z</time>
      </trkpt>
      <trkpt lat="50.10224" lon="3.57954">
        <ele>117.42</ele>
        <time>2015-05-24T07:48:31Z</time>
      </trkpt>
      <trkpt lat="50.10224" lon="3.57951">
        <ele>116.94</ele>
        <time>2015-05-24T07:48:32Z</time>
      </trkpt>
      <trkpt lat="50.10225" lon="3.57948">
        <ele>116.94</ele>
        <time>2015-05-24T07:48:33Z</time>
      </trkpt>
      <trkpt lat="50.10226" lon="3.57944">
        <ele>116.94</ele>
        <time>2015-05-24T07:48:34Z</time>
      </trkpt>
      <trkpt lat="50.10226" lon="3.57939">
        <ele>116.94</ele>
        <time>2015-05-24T07:48:35Z</time>
      </trkpt>
      <trkpt lat="50.10226" lon="3.57935">
        <ele>116.94</ele>
        <time>2015-05-24T07:48:36Z</time>
      </trkpt>
      <trkpt lat="50.10225" lon="3.57932">
        <ele>116.94</ele>
        <time>2015-05-24T07:48:37Z</time>
      </trkpt>
      <trkpt lat="50.10208" lon="3.57886">
        <ele>119.34</ele>
        <time>2015-05-24T07:48:48Z</time>
      </trkpt>
      <trkpt lat="50.10188" lon="3.57833">
        <ele>122.22</ele>
        <time>2015-05-24T07:49:03Z</time>
      </trkpt>
      <trkpt lat="50.10168" lon="3.5778">
        <ele>125.11</ele>
        <time>2015-05-24T07:49:16Z</time>
      </trkpt>
      <trkpt lat="50.10148" lon="3.57732">
        <ele>127.03</ele>
        <time>2015-05-24T07:49:30Z</time>
      </trkpt>
      <trkpt lat="50.10137" lon="3.57696">
        <ele>129.43</ele>
        <time>2015-05-24T07:49:41Z</time>
      </trkpt>
      <trkpt lat="50.10137" lon="3.57659">
        <ele>130.88</ele>
        <time>2015-05-24T07:49:52Z</time>
      </trkpt>
      <trkpt lat="50.10143" lon="3.5761">
        <ele>130.4</ele>
        <time>2015-05-24T07:50:05Z</time>
      </trkpt>
      <trkpt lat="50.10154" lon="3.57554">
        <ele>130.4</ele>
        <time>2015-05-24T07:50:17Z</time>
      </trkpt>
      <trkpt lat="50.10163" lon="3.57496">
        <ele>130.4</ele>
        <time>2015-05-24T07:50:29Z</time>
      </trkpt>
      <trkpt lat="50.10175" lon="3.57419">
        <ele>130.88</ele>
        <time>2015-05-24T07:50:44Z</time>
      </trkpt>
      <trkpt lat="50.10178" lon="3.57348">
        <ele>132.32</ele>
        <time>2015-05-24T07:50:59Z</time>
      </trkpt>
      <trkpt lat="50.10178" lon="3.573">
        <ele>134.24</ele>
        <time>2015-05-24T07:51:10Z</time>
      </trkpt>
      <trkpt lat="50.10174" lon="3.57245">
        <ele>136.64</ele>
        <time>2015-05-24T07:51:25Z</time>
      </trkpt>
      <trkpt lat="50.10165" lon="3.57174">
        <ele>137.61</ele>
        <time>2015-05-24T07:51:39Z</time>
      </trkpt>
      <trkpt lat="50.10127" lon="3.57086">
        <ele>139.05</ele>
        <time>2015-05-24T07:51:59Z</time>
      </trkpt>
      <trkpt lat="50.10094" lon="3.5701">
        <ele>140.01</ele>
        <time>2015-05-24T07:52:15Z</time>
      </trkpt>
      <trkpt lat="50.10064" lon="3.56941">
        <ele>141.45</ele>
        <time>2015-05-24T07:52:30Z</time>
      </trkpt>
      <trkpt lat="50.1003" lon="3.56867">
        <ele>141.93</ele>
        <time>2015-05-24T07:52:48Z</time>
      </trkpt>
      <trkpt lat="50.09998" lon="3.56796">
        <ele>143.37</ele>
        <time>2015-05-24T07:53:04Z</time>
      </trkpt>
      <trkpt lat="50.09967" lon="3.56724">
        <ele>145.78</ele>
        <time>2015-05-24T07:53:20Z</time>
      </trkpt>
      <trkpt lat="50.09964" lon="3.56716">
        <ele>146.74</ele>
        <time>2015-05-24T07:53:23Z</time>
      </trkpt>
      <trkpt lat="50.09968" lon="3.56702">
        <ele>148.18</ele>
        <time>2015-05-24T07:53:28Z</time>
      </trkpt>
      <trkpt lat="50.10008" lon="3.56654">
        <ele>148.66</ele>
        <time>2015-05-24T07:53:44Z</time>
      </trkpt>
      <trkpt lat="50.1005" lon="3.56598">
        <ele>148.66</ele>
        <time>2015-05-24T07:53:59Z</time>
      </trkpt>
      <trkpt lat="50.1011" lon="3.56521">
        <ele>149.14</ele>
        <time>2015-05-24T07:54:18Z</time>
      </trkpt>
      <trkpt lat="50.10126" lon="3.56502">
        <ele>149.14</ele>
        <time>2015-05-24T07:54:23Z</time>
      </trkpt>
      <trkpt lat="50.10143" lon="3.56483">
        <ele>149.14</ele>
        <time>2015-05-24T07:54:28Z</time>
      </trkpt>
      <trkpt lat="50.10199" lon="3.56417">
        <ele>149.14</ele>
        <time>2015-05-24T07:54:44Z</time>
      </trkpt>
      <trkpt lat="50.10249" lon="3.56356">
        <ele>147.7</ele>
        <time>2015-05-24T07:54:57Z</time>
      </trkpt>
      <trkpt lat="50.10315" lon="3.56276">
        <ele>147.22</ele>
        <time>2015-05-24T07:55:14Z</time>
      </trkpt>
      <trkpt lat="50.10324" lon="3.56263">
        <ele>147.22</ele>
        <time>2015-05-24T07:55:17Z</time>
      </trkpt>
      <trkpt lat="50.10336" lon="3.56223">
        <ele>147.22</ele>
        <time>2015-05-24T07:55:24Z</time>
      </trkpt>
      <trkpt lat="50.10338" lon="3.56204">
        <ele>147.22</ele>
        <time>2015-05-24T07:55:27Z</time>
      </trkpt>
      <trkpt lat="50.10338" lon="3.56197">
        <ele>147.22</ele>
        <time>2015-05-24T07:55:28Z</time>
      </trkpt>
      <trkpt lat="50.10334" lon="3.56176">
        <ele>147.22</ele>
        <time>2015-05-24T07:55:31Z</time>
      </trkpt>
      <trkpt lat="50.10334" lon="3.5617">
        <ele>147.22</ele>
        <time>2015-05-24T07:55:32Z</time>
      </trkpt>
      <trkpt lat="50.10334" lon="3.56163">
        <ele>147.22</ele>
        <time>2015-05-24T07:55:33Z</time>
      </trkpt>
      <trkpt lat="50.10335" lon="3.56155">
        <ele>147.22</ele>
        <time>2015-05-24T07:55:34Z</time>
      </trkpt>
      <trkpt lat="50.10335" lon="3.56149">
        <ele>147.22</ele>
        <time>2015-05-24T07:55:35Z</time>
      </trkpt>
      <trkpt lat="50.10334" lon="3.56141">
        <ele>147.22</ele>
        <time>2015-05-24T07:55:36Z</time>
      </trkpt>
      <trkpt lat="50.10332" lon="3.56135">
        <ele>147.22</ele>
        <time>2015-05-24T07:55:37Z</time>
      </trkpt>
      <trkpt lat="50.10306" lon="3.56031">
        <ele>145.78</ele>
        <time>2015-05-24T07:55:53Z</time>
      </trkpt>
      <trkpt lat="50.10265" lon="3.55887">
        <ele>143.37</ele>
        <time>2015-05-24T07:56:12Z</time>
      </trkpt>
      <trkpt lat="50.1023" lon="3.55769">
        <ele>140.01</ele>
        <time>2015-05-24T07:56:25Z</time>
      </trkpt>
      <trkpt lat="50.10208" lon="3.55693">
        <ele>136.64</ele>
        <time>2015-05-24T07:56:33Z</time>
      </trkpt>
      <trkpt lat="50.10191" lon="3.55634">
        <ele>134.24</ele>
        <time>2015-05-24T07:56:41Z</time>
      </trkpt>
      <trkpt lat="50.1019" lon="3.55627">
        <ele>134.24</ele>
        <time>2015-05-24T07:56:42Z</time>
      </trkpt>
      <trkpt lat="50.10191" lon="3.55619">
        <ele>134.24</ele>
        <time>2015-05-24T07:56:43Z</time>
      </trkpt>
      <trkpt lat="50.10194" lon="3.55603">
        <ele>133.28</ele>
        <time>2015-05-24T07:56:45Z</time>
      </trkpt>
      <trkpt lat="50.10213" lon="3.5554">
        <ele>131.36</ele>
        <time>2015-05-24T07:56:52Z</time>
      </trkpt>
      <trkpt lat="50.10241" lon="3.55439">
        <ele>127.99</ele>
        <time>2015-05-24T07:57:01Z</time>
      </trkpt>
      <trkpt lat="50.10267" lon="3.55352">
        <ele>124.63</ele>
        <time>2015-05-24T07:57:08Z</time>
      </trkpt>
      <trkpt lat="50.10271" lon="3.5534">
        <ele>124.63</ele>
        <time>2015-05-24T07:57:09Z</time>
      </trkpt>
      <trkpt lat="50.10283" lon="3.55302">
        <ele>123.19</ele>
        <time>2015-05-24T07:57:12Z</time>
      </trkpt>
      <trkpt lat="50.10308" lon="3.55224">
        <ele>119.82</ele>
        <time>2015-05-24T07:57:18Z</time>
      </trkpt>
      <trkpt lat="50.10313" lon="3.55211">
        <ele>119.82</ele>
        <time>2015-05-24T07:57:19Z</time>
      </trkpt>
      <trkpt lat="50.10324" lon="3.55172">
        <ele>118.86</ele>
        <time>2015-05-24T07:57:22Z</time>
      </trkpt>
      <trkpt lat="50.10327" lon="3.55158">
        <ele>117.9</ele>
        <time>2015-05-24T07:57:23Z</time>
      </trkpt>
      <trkpt lat="50.10332" lon="3.55116">
        <ele>116.46</ele>
        <time>2015-05-24T07:57:26Z</time>
      </trkpt>
      <trkpt lat="50.10333" lon="3.55101">
        <ele>115.98</ele>
        <time>2015-05-24T07:57:27Z</time>
      </trkpt>
      <trkpt lat="50.10335" lon="3.55088">
        <ele>115.01</ele>
        <time>2015-05-24T07:57:28Z</time>
      </trkpt>
      <trkpt lat="50.10338" lon="3.55073">
        <ele>115.01</ele>
        <time>2015-05-24T07:57:29Z</time>
      </trkpt>
      <trkpt lat="50.1034" lon="3.55058">
        <ele>114.53</ele>
        <time>2015-05-24T07:57:30Z</time>
      </trkpt>
      <trkpt lat="50.1037" lon="3.54852">
        <ele>114.53</ele>
        <time>2015-05-24T07:57:46Z</time>
      </trkpt>
      <trkpt lat="50.10402" lon="3.5474">
        <ele>117.9</ele>
        <time>2015-05-24T07:57:59Z</time>
      </trkpt>
      <trkpt lat="50.10433" lon="3.54631">
        <ele>118.86</ele>
        <time>2015-05-24T07:58:14Z</time>
      </trkpt>
      <trkpt lat="50.10451" lon="3.54564">
        <ele>117.42</ele>
        <time>2015-05-24T07:58:22Z</time>
      </trkpt>
      <trkpt lat="50.10455" lon="3.54555">
        <ele>116.94</ele>
        <time>2015-05-24T07:58:23Z</time>
      </trkpt>
      <trkpt lat="50.1052" lon="3.54451">
        <ele>113.57</ele>
        <time>2015-05-24T07:58:37Z</time>
      </trkpt>
      <trkpt lat="50.10528" lon="3.54433">
        <ele>113.57</ele>
        <time>2015-05-24T07:58:39Z</time>
      </trkpt>
      <trkpt lat="50.1053" lon="3.54423">
        <ele>113.09</ele>
        <time>2015-05-24T07:58:40Z</time>
      </trkpt>
      <trkpt lat="50.1053" lon="3.54414">
        <ele>113.09</ele>
        <time>2015-05-24T07:58:41Z</time>
      </trkpt>
      <trkpt lat="50.10529" lon="3.54405">
        <ele>113.09</ele>
        <time>2015-05-24T07:58:42Z</time>
      </trkpt>
      <trkpt lat="50.10525" lon="3.54397">
        <ele>113.09</ele>
        <time>2015-05-24T07:58:43Z</time>
      </trkpt>
      <trkpt lat="50.10521" lon="3.54389">
        <ele>112.61</ele>
        <time>2015-05-24T07:58:44Z</time>
      </trkpt>
      <trkpt lat="50.10516" lon="3.54382">
        <ele>112.61</ele>
        <time>2015-05-24T07:58:45Z</time>
      </trkpt>
      <trkpt lat="50.10509" lon="3.54367">
        <ele>112.13</ele>
        <time>2015-05-24T07:58:47Z</time>
      </trkpt>
      <trkpt lat="50.10508" lon="3.54357">
        <ele>111.65</ele>
        <time>2015-05-24T07:58:48Z</time>
      </trkpt>
      <trkpt lat="50.10509" lon="3.54348">
        <ele>111.65</ele>
        <time>2015-05-24T07:58:49Z</time>
      </trkpt>
      <trkpt lat="50.10511" lon="3.54339">
        <ele>111.65</ele>
        <time>2015-05-24T07:58:50Z</time>
      </trkpt>
      <trkpt lat="50.10514" lon="3.54329">
        <ele>111.17</ele>
        <time>2015-05-24T07:58:51Z</time>
      </trkpt>
      <trkpt lat="50.10542" lon="3.54252">
        <ele>107.81</ele>
        <time>2015-05-24T07:58:59Z</time>
      </trkpt>
      <trkpt lat="50.10558" lon="3.54205">
        <ele>104.92</ele>
        <time>2015-05-24T07:59:03Z</time>
      </trkpt>
      <trkpt lat="50.1058" lon="3.54139">
        <ele>102.04</ele>
        <time>2015-05-24T07:59:08Z</time>
      </trkpt>
      <trkpt lat="50.10584" lon="3.54125">
        <ele>101.56</ele>
        <time>2015-05-24T07:59:09Z</time>
      </trkpt>
      <trkpt lat="50.10608" lon="3.54046">
        <ele>98.67</ele>
        <time>2015-05-24T07:59:15Z</time>
      </trkpt>
      <trkpt lat="50.10643" lon="3.53927">
        <ele>97.23</ele>
        <time>2015-05-24T07:59:26Z</time>
      </trkpt>
      <trkpt lat="50.10642" lon="3.53915">
        <ele>97.23</ele>
        <time>2015-05-24T07:59:27Z</time>
      </trkpt>
      <trkpt lat="50.1064" lon="3.53905">
        <ele>96.75</ele>
        <time>2015-05-24T07:59:28Z</time>
      </trkpt>
      <trkpt lat="50.10638" lon="3.53895">
        <ele>96.75</ele>
        <time>2015-05-24T07:59:29Z</time>
      </trkpt>
      <trkpt lat="50.10636" lon="3.53885">
        <ele>96.27</ele>
        <time>2015-05-24T07:59:30Z</time>
      </trkpt>
      <trkpt lat="50.10634" lon="3.53873">
        <ele>95.79</ele>
        <time>2015-05-24T07:59:31Z</time>
      </trkpt>
      <trkpt lat="50.10627" lon="3.5379">
        <ele>96.75</ele>
        <time>2015-05-24T07:59:41Z</time>
      </trkpt>
      <trkpt lat="50.10629" lon="3.53719">
        <ele>99.63</ele>
        <time>2015-05-24T07:59:54Z</time>
      </trkpt>
      <trkpt lat="50.10631" lon="3.53672">
        <ele>102.52</ele>
        <time>2015-05-24T08:00:03Z</time>
      </trkpt>
      <trkpt lat="50.10633" lon="3.5366">
        <ele>103</ele>
        <time>2015-05-24T08:00:05Z</time>
      </trkpt>
      <trkpt lat="50.10635" lon="3.53654">
        <ele>103.48</ele>
        <time>2015-05-24T08:00:06Z</time>
      </trkpt>
      <trkpt lat="50.10637" lon="3.53648">
        <ele>103.48</ele>
        <time>2015-05-24T08:00:07Z</time>
      </trkpt>
      <trkpt lat="50.10639" lon="3.53643">
        <ele>103.96</ele>
        <time>2015-05-24T08:00:08Z</time>
      </trkpt>
      <trkpt lat="50.10641" lon="3.53637">
        <ele>104.44</ele>
        <time>2015-05-24T08:00:09Z</time>
      </trkpt>
      <trkpt lat="50.10641" lon="3.5363">
        <ele>103.96</ele>
        <time>2015-05-24T08:00:10Z</time>
      </trkpt>
      <trkpt lat="50.1064" lon="3.53623">
        <ele>104.92</ele>
        <time>2015-05-24T08:00:11Z</time>
      </trkpt>
      <trkpt lat="50.1064" lon="3.53616">
        <ele>104.92</ele>
        <time>2015-05-24T08:00:12Z</time>
      </trkpt>
      <trkpt lat="50.10639" lon="3.5361">
        <ele>105.4</ele>
        <time>2015-05-24T08:00:13Z</time>
      </trkpt>
      <trkpt lat="50.10629" lon="3.53541">
        <ele>107.32</ele>
        <time>2015-05-24T08:00:27Z</time>
      </trkpt>
      <trkpt lat="50.1062" lon="3.53479">
        <ele>109.25</ele>
        <time>2015-05-24T08:00:41Z</time>
      </trkpt>
      <trkpt lat="50.10613" lon="3.53423">
        <ele>111.17</ele>
        <time>2015-05-24T08:00:55Z</time>
      </trkpt>
      <trkpt lat="50.106" lon="3.53371">
        <ele>113.09</ele>
        <time>2015-05-24T08:01:07Z</time>
      </trkpt>
      <trkpt lat="50.10597" lon="3.53368">
        <ele>113.09</ele>
        <time>2015-05-24T08:01:08Z</time>
      </trkpt>
      <trkpt lat="50.10594" lon="3.53366">
        <ele>113.09</ele>
        <time>2015-05-24T08:01:09Z</time>
      </trkpt>
      <trkpt lat="50.10591" lon="3.53365">
        <ele>113.09</ele>
        <time>2015-05-24T08:01:10Z</time>
      </trkpt>
      <trkpt lat="50.10588" lon="3.53364">
        <ele>113.09</ele>
        <time>2015-05-24T08:01:11Z</time>
      </trkpt>
      <trkpt lat="50.10549" lon="3.53338">
        <ele>115.5</ele>
        <time>2015-05-24T08:01:24Z</time>
      </trkpt>
      <trkpt lat="50.10525" lon="3.53294">
        <ele>118.38</ele>
        <time>2015-05-24T08:01:37Z</time>
      </trkpt>
      <trkpt lat="50.10513" lon="3.53255">
        <ele>119.82</ele>
        <time>2015-05-24T08:01:48Z</time>
      </trkpt>
      <trkpt lat="50.10496" lon="3.53201">
        <ele>121.74</ele>
        <time>2015-05-24T08:02:04Z</time>
      </trkpt>
      <trkpt lat="50.10474" lon="3.53148">
        <ele>123.19</ele>
        <time>2015-05-24T08:02:20Z</time>
      </trkpt>
      <trkpt lat="50.10457" lon="3.53098">
        <ele>125.11</ele>
        <time>2015-05-24T08:02:35Z</time>
      </trkpt>
      <trkpt lat="50.1047" lon="3.53066">
        <ele>126.55</ele>
        <time>2015-05-24T08:02:46Z</time>
      </trkpt>
      <trkpt lat="50.10501" lon="3.53035">
        <ele>128.95</ele>
        <time>2015-05-24T08:03:00Z</time>
      </trkpt>
      <trkpt lat="50.1051" lon="3.52981">
        <ele>129.92</ele>
        <time>2015-05-24T08:03:14Z</time>
      </trkpt>
      <trkpt lat="50.10509" lon="3.52964">
        <ele>130.4</ele>
        <time>2015-05-24T08:03:18Z</time>
      </trkpt>
      <trkpt lat="50.10508" lon="3.5296">
        <ele>130.4</ele>
        <time>2015-05-24T08:03:19Z</time>
      </trkpt>
      <trkpt lat="50.10507" lon="3.52956">
        <ele>130.88</ele>
        <time>2015-05-24T08:03:20Z</time>
      </trkpt>
      <trkpt lat="50.10507" lon="3.52952">
        <ele>130.88</ele>
        <time>2015-05-24T08:03:21Z</time>
      </trkpt>
      <trkpt lat="50.10505" lon="3.52947">
        <ele>130.88</ele>
        <time>2015-05-24T08:03:22Z</time>
      </trkpt>
      <trkpt lat="50.10504" lon="3.52943">
        <ele>130.88</ele>
        <time>2015-05-24T08:03:23Z</time>
      </trkpt>
      <trkpt lat="50.10486" lon="3.52883">
        <ele>131.84</ele>
        <time>2015-05-24T08:03:37Z</time>
      </trkpt>
      <trkpt lat="50.10467" lon="3.52813">
        <ele>132.32</ele>
        <time>2015-05-24T08:03:51Z</time>
      </trkpt>
      <trkpt lat="50.10442" lon="3.52722">
        <ele>134.72</ele>
        <time>2015-05-24T08:04:09Z</time>
      </trkpt>
      <trkpt lat="50.1042" lon="3.5265">
        <ele>136.16</ele>
        <time>2015-05-24T08:04:23Z</time>
      </trkpt>
      <trkpt lat="50.10392" lon="3.52559">
        <ele>138.09</ele>
        <time>2015-05-24T08:04:41Z</time>
      </trkpt>
      <trkpt lat="50.1038" lon="3.52486">
        <ele>139.53</ele>
        <time>2015-05-24T08:04:56Z</time>
      </trkpt>
      <trkpt lat="50.10379" lon="3.52422">
        <ele>140.49</ele>
        <time>2015-05-24T08:05:11Z</time>
      </trkpt>
      <trkpt lat="50.10387" lon="3.52355">
        <ele>137.61</ele>
        <time>2015-05-24T08:05:21Z</time>
      </trkpt>
      <trkpt lat="50.10394" lon="3.52311">
        <ele>136.16</ele>
        <time>2015-05-24T08:05:26Z</time>
      </trkpt>
      <trkpt lat="50.10395" lon="3.523">
        <ele>136.16</ele>
        <time>2015-05-24T08:05:27Z</time>
      </trkpt>
      <trkpt lat="50.10409" lon="3.52222">
        <ele>132.8</ele>
        <time>2015-05-24T08:05:35Z</time>
      </trkpt>
      <trkpt lat="50.10411" lon="3.52172">
        <ele>131.36</ele>
        <time>2015-05-24T08:05:40Z</time>
      </trkpt>
      <trkpt lat="50.1041" lon="3.52161">
        <ele>131.36</ele>
        <time>2015-05-24T08:05:41Z</time>
      </trkpt>
      <trkpt lat="50.10408" lon="3.52144">
        <ele>130.88</ele>
        <time>2015-05-24T08:05:43Z</time>
      </trkpt>
      <trkpt lat="50.10381" lon="3.52049">
        <ele>129.92</ele>
        <time>2015-05-24T08:05:57Z</time>
      </trkpt>
      <trkpt lat="50.10368" lon="3.52005">
        <ele>129.92</ele>
        <time>2015-05-24T08:06:08Z</time>
      </trkpt>
      <trkpt lat="50.10356" lon="3.51951">
        <ele>129.92</ele>
        <time>2015-05-24T08:06:21Z</time>
      </trkpt>
      <trkpt lat="50.10351" lon="3.51903">
        <ele>129.92</ele>
        <time>2015-05-24T08:06:33Z</time>
      </trkpt>
      <trkpt lat="50.10348" lon="3.51845">
        <ele>129.92</ele>
        <time>2015-05-24T08:06:45Z</time>
      </trkpt>
      <trkpt lat="50.10346" lon="3.51799">
        <ele>130.88</ele>
        <time>2015-05-24T08:06:53Z</time>
      </trkpt>
      <trkpt lat="50.10343" lon="3.51725">
        <ele>130.88</ele>
        <time>2015-05-24T08:07:08Z</time>
      </trkpt>
      <trkpt lat="50.10343" lon="3.5163">
        <ele>132.8</ele>
        <time>2015-05-24T08:07:27Z</time>
      </trkpt>
      <trkpt lat="50.10344" lon="3.51571">
        <ele>133.76</ele>
        <time>2015-05-24T08:07:41Z</time>
      </trkpt>
      <trkpt lat="50.10345" lon="3.51536">
        <ele>135.2</ele>
        <time>2015-05-24T08:07:51Z</time>
      </trkpt>
      <trkpt lat="50.10345" lon="3.51533">
        <ele>135.2</ele>
        <time>2015-05-24T08:07:52Z</time>
      </trkpt>
      <trkpt lat="50.10345" lon="3.5153">
        <ele>135.2</ele>
        <time>2015-05-24T08:07:53Z</time>
      </trkpt>
      <trkpt lat="50.10346" lon="3.51528">
        <ele>135.68</ele>
        <time>2015-05-24T08:07:54Z</time>
      </trkpt>
      <trkpt lat="50.10346" lon="3.51526">
        <ele>135.68</ele>
        <time>2015-05-24T08:07:55Z</time>
      </trkpt>
      <trkpt lat="50.10347" lon="3.51516">
        <ele>137.13</ele>
        <time>2015-05-24T08:08:05Z</time>
      </trkpt>
      <trkpt lat="50.10328" lon="3.51473">
        <ele>136.64</ele>
        <time>2015-05-24T08:08:16Z</time>
      </trkpt>
      <trkpt lat="50.10325" lon="3.51462">
        <ele>136.64</ele>
        <time>2015-05-24T08:08:18Z</time>
      </trkpt>
      <trkpt lat="50.10324" lon="3.51456">
        <ele>136.64</ele>
        <time>2015-05-24T08:08:19Z</time>
      </trkpt>
      <trkpt lat="50.10319" lon="3.51394">
        <ele>136.64</ele>
        <time>2015-05-24T08:08:30Z</time>
      </trkpt>
      <trkpt lat="50.1031" lon="3.51307">
        <ele>136.64</ele>
        <time>2015-05-24T08:08:45Z</time>
      </trkpt>
      <trkpt lat="50.10299" lon="3.51228">
        <ele>136.64</ele>
        <time>2015-05-24T08:08:59Z</time>
      </trkpt>
      <trkpt lat="50.1029" lon="3.51134">
        <ele>137.61</ele>
        <time>2015-05-24T08:09:16Z</time>
      </trkpt>
      <trkpt lat="50.10289" lon="3.51073">
        <ele>138.09</ele>
        <time>2015-05-24T08:09:26Z</time>
      </trkpt>
      <trkpt lat="50.10288" lon="3.5106">
        <ele>138.09</ele>
        <time>2015-05-24T08:09:28Z</time>
      </trkpt>
      <trkpt lat="50.10286" lon="3.51054">
        <ele>138.09</ele>
        <time>2015-05-24T08:09:29Z</time>
      </trkpt>
      <trkpt lat="50.10284" lon="3.51048">
        <ele>138.09</ele>
        <time>2015-05-24T08:09:30Z</time>
      </trkpt>
      <trkpt lat="50.10283" lon="3.51042">
        <ele>138.09</ele>
        <time>2015-05-24T08:09:31Z</time>
      </trkpt>
      <trkpt lat="50.10281" lon="3.51036">
        <ele>138.57</ele>
        <time>2015-05-24T08:09:32Z</time>
      </trkpt>
      <trkpt lat="50.10258" lon="3.50932">
        <ele>140.01</ele>
        <time>2015-05-24T08:09:48Z</time>
      </trkpt>
      <trkpt lat="50.10238" lon="3.50814">
        <ele>140.49</ele>
        <time>2015-05-24T08:10:05Z</time>
      </trkpt>
      <trkpt lat="50.10207" lon="3.507">
        <ele>140.97</ele>
        <time>2015-05-24T08:10:23Z</time>
      </trkpt>
      <trkpt lat="50.10203" lon="3.50688">
        <ele>140.97</ele>
        <time>2015-05-24T08:10:25Z</time>
      </trkpt>
      <trkpt lat="50.102" lon="3.50675">
        <ele>140.97</ele>
        <time>2015-05-24T08:10:27Z</time>
      </trkpt>
      <trkpt lat="50.10195" lon="3.50663">
        <ele>140.97</ele>
        <time>2015-05-24T08:10:29Z</time>
      </trkpt>
      <trkpt lat="50.10191" lon="3.50637">
        <ele>141.45</ele>
        <time>2015-05-24T08:10:33Z</time>
      </trkpt>
      <trkpt lat="50.10189" lon="3.50599">
        <ele>141.93</ele>
        <time>2015-05-24T08:10:39Z</time>
      </trkpt>
      <trkpt lat="50.10189" lon="3.50593">
        <ele>141.93</ele>
        <time>2015-05-24T08:10:40Z</time>
      </trkpt>
      <trkpt lat="50.10188" lon="3.50511">
        <ele>142.41</ele>
        <time>2015-05-24T08:10:52Z</time>
      </trkpt>
      <trkpt lat="50.10188" lon="3.50486">
        <ele>142.89</ele>
        <time>2015-05-24T08:10:56Z</time>
      </trkpt>
      <trkpt lat="50.10188" lon="3.50479">
        <ele>142.89</ele>
        <time>2015-05-24T08:10:57Z</time>
      </trkpt>
      <trkpt lat="50.10188" lon="3.50473">
        <ele>142.89</ele>
        <time>2015-05-24T08:10:58Z</time>
      </trkpt>
      <trkpt lat="50.10188" lon="3.50392">
        <ele>141.93</ele>
        <time>2015-05-24T08:11:11Z</time>
      </trkpt>
      <trkpt lat="50.10187" lon="3.50385">
        <ele>141.93</ele>
        <time>2015-05-24T08:11:12Z</time>
      </trkpt>
      <trkpt lat="50.10187" lon="3.50378">
        <ele>141.45</ele>
        <time>2015-05-24T08:11:13Z</time>
      </trkpt>
      <trkpt lat="50.10186" lon="3.50282">
        <ele>140.01</ele>
        <time>2015-05-24T08:11:26Z</time>
      </trkpt>
      <trkpt lat="50.10188" lon="3.50266">
        <ele>140.49</ele>
        <time>2015-05-24T08:11:28Z</time>
      </trkpt>
      <trkpt lat="50.10195" lon="3.50143">
        <ele>138.57</ele>
        <time>2015-05-24T08:11:44Z</time>
      </trkpt>
      <trkpt lat="50.10196" lon="3.50136">
        <ele>138.57</ele>
        <time>2015-05-24T08:11:45Z</time>
      </trkpt>
      <trkpt lat="50.10196" lon="3.50129">
        <ele>138.57</ele>
        <time>2015-05-24T08:11:46Z</time>
      </trkpt>
      <trkpt lat="50.10202" lon="3.50089">
        <ele>138.57</ele>
        <time>2015-05-24T08:11:52Z</time>
      </trkpt>
      <trkpt lat="50.10204" lon="3.50082">
        <ele>138.09</ele>
        <time>2015-05-24T08:11:53Z</time>
      </trkpt>
      <trkpt lat="50.10217" lon="3.49991">
        <ele>138.09</ele>
        <time>2015-05-24T08:12:07Z</time>
      </trkpt>
      <trkpt lat="50.10219" lon="3.49973">
        <ele>138.09</ele>
        <time>2015-05-24T08:12:10Z</time>
      </trkpt>
      <trkpt lat="50.10225" lon="3.49936">
        <ele>139.53</ele>
        <time>2015-05-24T08:12:16Z</time>
      </trkpt>
      <trkpt lat="50.10231" lon="3.49896">
        <ele>140.01</ele>
        <time>2015-05-24T08:12:22Z</time>
      </trkpt>
      <trkpt lat="50.10232" lon="3.49889">
        <ele>140.01</ele>
        <time>2015-05-24T08:12:23Z</time>
      </trkpt>
      <trkpt lat="50.10242" lon="3.49797">
        <ele>140.49</ele>
        <time>2015-05-24T08:12:38Z</time>
      </trkpt>
      <trkpt lat="50.10242" lon="3.4979">
        <ele>140.49</ele>
        <time>2015-05-24T08:12:39Z</time>
      </trkpt>
      <trkpt lat="50.1025" lon="3.49711">
        <ele>137.13</ele>
        <time>2015-05-24T08:12:49Z</time>
      </trkpt>
      <trkpt lat="50.10251" lon="3.49702">
        <ele>137.13</ele>
        <time>2015-05-24T08:12:50Z</time>
      </trkpt>
      <trkpt lat="50.10254" lon="3.49675">
        <ele>136.64</ele>
        <time>2015-05-24T08:12:53Z</time>
      </trkpt>
      <trkpt lat="50.10259" lon="3.49589">
        <ele>135.2</ele>
        <time>2015-05-24T08:13:03Z</time>
      </trkpt>
      <trkpt lat="50.10257" lon="3.49485">
        <ele>134.72</ele>
        <time>2015-05-24T08:13:16Z</time>
      </trkpt>
      <trkpt lat="50.1025" lon="3.49387">
        <ele>136.16</ele>
        <time>2015-05-24T08:13:29Z</time>
      </trkpt>
      <trkpt lat="50.10236" lon="3.49286">
        <ele>138.09</ele>
        <time>2015-05-24T08:13:44Z</time>
      </trkpt>
      <trkpt lat="50.1022" lon="3.49199">
        <ele>138.09</ele>
        <time>2015-05-24T08:13:59Z</time>
      </trkpt>
      <trkpt lat="50.10211" lon="3.49162">
        <ele>138.09</ele>
        <time>2015-05-24T08:14:05Z</time>
      </trkpt>
      <trkpt lat="50.1021" lon="3.49156">
        <ele>138.09</ele>
        <time>2015-05-24T08:14:06Z</time>
      </trkpt>
      <trkpt lat="50.10208" lon="3.49136">
        <ele>138.09</ele>
        <time>2015-05-24T08:14:09Z</time>
      </trkpt>
      <trkpt lat="50.10209" lon="3.49096">
        <ele>138.09</ele>
        <time>2015-05-24T08:14:15Z</time>
      </trkpt>
      <trkpt lat="50.1021" lon="3.4909">
        <ele>138.09</ele>
        <time>2015-05-24T08:14:16Z</time>
      </trkpt>
      <trkpt lat="50.10217" lon="3.4906">
        <ele>138.57</ele>
        <time>2015-05-24T08:14:21Z</time>
      </trkpt>
      <trkpt lat="50.10224" lon="3.49039">
        <ele>138.57</ele>
        <time>2015-05-24T08:14:24Z</time>
      </trkpt>
      <trkpt lat="50.10233" lon="3.49015">
        <ele>139.05</ele>
        <time>2015-05-24T08:14:28Z</time>
      </trkpt>
      <trkpt lat="50.10245" lon="3.48988">
        <ele>139.05</ele>
        <time>2015-05-24T08:14:33Z</time>
      </trkpt>
      <trkpt lat="50.10247" lon="3.48983">
        <ele>139.05</ele>
        <time>2015-05-24T08:14:34Z</time>
      </trkpt>
      <trkpt lat="50.10276" lon="3.48916">
        <ele>138.09</ele>
        <time>2015-05-24T08:14:47Z</time>
      </trkpt>
      <trkpt lat="50.10277" lon="3.4891">
        <ele>138.09</ele>
        <time>2015-05-24T08:14:48Z</time>
      </trkpt>
      <trkpt lat="50.10284" lon="3.48865">
        <ele>137.13</ele>
        <time>2015-05-24T08:14:54Z</time>
      </trkpt>
      <trkpt lat="50.10285" lon="3.48843">
        <ele>136.16</ele>
        <time>2015-05-24T08:14:57Z</time>
      </trkpt>
      <trkpt lat="50.10285" lon="3.48828">
        <ele>136.16</ele>
        <time>2015-05-24T08:14:59Z</time>
      </trkpt>
      <trkpt lat="50.10285" lon="3.4882">
        <ele>136.16</ele>
        <time>2015-05-24T08:15:00Z</time>
      </trkpt>
      <trkpt lat="50.10285" lon="3.48813">
        <ele>135.68</ele>
        <time>2015-05-24T08:15:01Z</time>
      </trkpt>
      <trkpt lat="50.10285" lon="3.48792">
        <ele>135.2</ele>
        <time>2015-05-24T08:15:04Z</time>
      </trkpt>
      <trkpt lat="50.10284" lon="3.48778">
        <ele>134.72</ele>
        <time>2015-05-24T08:15:06Z</time>
      </trkpt>
      <trkpt lat="50.10283" lon="3.48771">
        <ele>134.72</ele>
        <time>2015-05-24T08:15:07Z</time>
      </trkpt>
      <trkpt lat="50.10279" lon="3.4875">
        <ele>134.72</ele>
        <time>2015-05-24T08:15:10Z</time>
      </trkpt>
      <trkpt lat="50.10277" lon="3.48743">
        <ele>135.2</ele>
        <time>2015-05-24T08:15:11Z</time>
      </trkpt>
      <trkpt lat="50.10275" lon="3.48737">
        <ele>134.24</ele>
        <time>2015-05-24T08:15:12Z</time>
      </trkpt>
      <trkpt lat="50.10257" lon="3.4869">
        <ele>134.24</ele>
        <time>2015-05-24T08:15:19Z</time>
      </trkpt>
      <trkpt lat="50.10256" lon="3.48683">
        <ele>134.24</ele>
        <time>2015-05-24T08:15:20Z</time>
      </trkpt>
      <trkpt lat="50.10252" lon="3.48667">
        <ele>134.24</ele>
        <time>2015-05-24T08:15:22Z</time>
      </trkpt>
      <trkpt lat="50.1025" lon="3.48661">
        <ele>134.24</ele>
        <time>2015-05-24T08:15:23Z</time>
      </trkpt>
      <trkpt lat="50.10247" lon="3.48654">
        <ele>134.24</ele>
        <time>2015-05-24T08:15:24Z</time>
      </trkpt>
      <trkpt lat="50.10242" lon="3.48644">
        <ele>134.24</ele>
        <time>2015-05-24T08:15:26Z</time>
      </trkpt>
      <trkpt lat="50.10239" lon="3.48638">
        <ele>134.24</ele>
        <time>2015-05-24T08:15:27Z</time>
      </trkpt>
      <trkpt lat="50.10237" lon="3.48633">
        <ele>135.68</ele>
        <time>2015-05-24T08:15:28Z</time>
      </trkpt>
      <trkpt lat="50.10231" lon="3.48623">
        <ele>136.16</ele>
        <time>2015-05-24T08:15:30Z</time>
      </trkpt>
      <trkpt lat="50.10229" lon="3.48618">
        <ele>136.16</ele>
        <time>2015-05-24T08:15:31Z</time>
      </trkpt>
      <trkpt lat="50.10226" lon="3.48612">
        <ele>136.64</ele>
        <time>2015-05-24T08:15:32Z</time>
      </trkpt>
      <trkpt lat="50.10224" lon="3.48607">
        <ele>137.13</ele>
        <time>2015-05-24T08:15:33Z</time>
      </trkpt>
      <trkpt lat="50.10222" lon="3.48601">
        <ele>137.13</ele>
        <time>2015-05-24T08:15:34Z</time>
      </trkpt>
      <trkpt lat="50.10219" lon="3.48597">
        <ele>137.13</ele>
        <time>2015-05-24T08:15:35Z</time>
      </trkpt>
      <trkpt lat="50.10217" lon="3.48592">
        <ele>137.13</ele>
        <time>2015-05-24T08:15:36Z</time>
      </trkpt>
      <trkpt lat="50.10189" lon="3.48532">
        <ele>136.64</ele>
        <time>2015-05-24T08:15:49Z</time>
      </trkpt>
      <trkpt lat="50.10185" lon="3.48523">
        <ele>135.68</ele>
        <time>2015-05-24T08:15:51Z</time>
      </trkpt>
      <trkpt lat="50.10181" lon="3.48513">
        <ele>135.2</ele>
        <time>2015-05-24T08:15:53Z</time>
      </trkpt>
      <trkpt lat="50.10174" lon="3.48494">
        <ele>133.76</ele>
        <time>2015-05-24T08:15:56Z</time>
      </trkpt>
      <trkpt lat="50.10165" lon="3.48464">
        <ele>132.8</ele>
        <time>2015-05-24T08:16:00Z</time>
      </trkpt>
      <trkpt lat="50.10161" lon="3.48449">
        <ele>132.32</ele>
        <time>2015-05-24T08:16:02Z</time>
      </trkpt>
      <trkpt lat="50.10151" lon="3.48401">
        <ele>130.88</ele>
        <time>2015-05-24T08:16:09Z</time>
      </trkpt>
      <trkpt lat="50.1015" lon="3.48395">
        <ele>130.88</ele>
        <time>2015-05-24T08:16:10Z</time>
      </trkpt>
      <trkpt lat="50.10143" lon="3.48365">
        <ele>129.43</ele>
        <time>2015-05-24T08:16:15Z</time>
      </trkpt>
      <trkpt lat="50.10142" lon="3.48358">
        <ele>128.95</ele>
        <time>2015-05-24T08:16:16Z</time>
      </trkpt>
      <trkpt lat="50.1014" lon="3.48351">
        <ele>128.95</ele>
        <time>2015-05-24T08:16:17Z</time>
      </trkpt>
      <trkpt lat="50.10138" lon="3.48344">
        <ele>128.47</ele>
        <time>2015-05-24T08:16:18Z</time>
      </trkpt>
      <trkpt lat="50.10137" lon="3.48337">
        <ele>128.47</ele>
        <time>2015-05-24T08:16:19Z</time>
      </trkpt>
      <trkpt lat="50.10135" lon="3.4833">
        <ele>128.47</ele>
        <time>2015-05-24T08:16:20Z</time>
      </trkpt>
      <trkpt lat="50.10134" lon="3.48323">
        <ele>128.47</ele>
        <time>2015-05-24T08:16:21Z</time>
      </trkpt>
      <trkpt lat="50.10122" lon="3.48262">
        <ele>126.55</ele>
        <time>2015-05-24T08:16:33Z</time>
      </trkpt>
      <trkpt lat="50.10103" lon="3.48164">
        <ele>126.07</ele>
        <time>2015-05-24T08:16:49Z</time>
      </trkpt>
      <trkpt lat="50.10089" lon="3.48088">
        <ele>125.59</ele>
        <time>2015-05-24T08:17:05Z</time>
      </trkpt>
      <trkpt lat="50.10081" lon="3.48035">
        <ele>125.59</ele>
        <time>2015-05-24T08:17:17Z</time>
      </trkpt>
      <trkpt lat="50.10078" lon="3.48014">
        <ele>126.55</ele>
        <time>2015-05-24T08:17:22Z</time>
      </trkpt>
      <trkpt lat="50.10066" lon="3.47954">
        <ele>128.95</ele>
        <time>2015-05-24T08:17:36Z</time>
      </trkpt>
      <trkpt lat="50.10052" lon="3.47912">
        <ele>130.88</ele>
        <time>2015-05-24T08:17:47Z</time>
      </trkpt>
      <trkpt lat="50.10032" lon="3.47866">
        <ele>132.8</ele>
        <time>2015-05-24T08:18:02Z</time>
      </trkpt>
      <trkpt lat="50.10011" lon="3.47832">
        <ele>134.24</ele>
        <time>2015-05-24T08:18:15Z</time>
      </trkpt>
      <trkpt lat="50.09991" lon="3.47794">
        <ele>133.76</ele>
        <time>2015-05-24T08:18:26Z</time>
      </trkpt>
      <trkpt lat="50.09989" lon="3.47788">
        <ele>133.76</ele>
        <time>2015-05-24T08:18:27Z</time>
      </trkpt>
      <trkpt lat="50.09986" lon="3.47776">
        <ele>132.32</ele>
        <time>2015-05-24T08:18:29Z</time>
      </trkpt>
      <trkpt lat="50.09985" lon="3.47768">
        <ele>132.32</ele>
        <time>2015-05-24T08:18:30Z</time>
      </trkpt>
      <trkpt lat="50.09984" lon="3.47762">
        <ele>132.32</ele>
        <time>2015-05-24T08:18:31Z</time>
      </trkpt>
      <trkpt lat="50.09981" lon="3.47748">
        <ele>131.84</ele>
        <time>2015-05-24T08:18:33Z</time>
      </trkpt>
      <trkpt lat="50.09976" lon="3.47728">
        <ele>131.84</ele>
        <time>2015-05-24T08:18:36Z</time>
      </trkpt>
      <trkpt lat="50.09975" lon="3.47722">
        <ele>131.84</ele>
        <time>2015-05-24T08:18:37Z</time>
      </trkpt>
      <trkpt lat="50.09973" lon="3.47714">
        <ele>131.36</ele>
        <time>2015-05-24T08:18:38Z</time>
      </trkpt>
      <trkpt lat="50.09969" lon="3.47699">
        <ele>131.36</ele>
        <time>2015-05-24T08:18:40Z</time>
      </trkpt>
      <trkpt lat="50.09969" lon="3.47692">
        <ele>131.36</ele>
        <time>2015-05-24T08:18:41Z</time>
      </trkpt>
      <trkpt lat="50.09968" lon="3.47684">
        <ele>130.4</ele>
        <time>2015-05-24T08:18:42Z</time>
      </trkpt>
      <trkpt lat="50.09969" lon="3.47675">
        <ele>130.4</ele>
        <time>2015-05-24T08:18:43Z</time>
      </trkpt>
      <trkpt lat="50.0997" lon="3.47666">
        <ele>130.4</ele>
        <time>2015-05-24T08:18:44Z</time>
      </trkpt>
      <trkpt lat="50.0997" lon="3.47659">
        <ele>129.92</ele>
        <time>2015-05-24T08:18:45Z</time>
      </trkpt>
      <trkpt lat="50.09971" lon="3.47651">
        <ele>129.92</ele>
        <time>2015-05-24T08:18:46Z</time>
      </trkpt>
      <trkpt lat="50.09973" lon="3.47643">
        <ele>129.92</ele>
        <time>2015-05-24T08:18:47Z</time>
      </trkpt>
      <trkpt lat="50.09974" lon="3.47634">
        <ele>129.43</ele>
        <time>2015-05-24T08:18:48Z</time>
      </trkpt>
      <trkpt lat="50.09985" lon="3.47574">
        <ele>127.99</ele>
        <time>2015-05-24T08:18:55Z</time>
      </trkpt>
      <trkpt lat="50.10011" lon="3.47474">
        <ele>124.63</ele>
        <time>2015-05-24T08:19:06Z</time>
      </trkpt>
      <trkpt lat="50.10045" lon="3.4735">
        <ele>122.71</ele>
        <time>2015-05-24T08:19:19Z</time>
      </trkpt>
      <trkpt lat="50.10056" lon="3.47309">
        <ele>122.22</ele>
        <time>2015-05-24T08:19:24Z</time>
      </trkpt>
      <trkpt lat="50.10074" lon="3.4723">
        <ele>122.22</ele>
        <time>2015-05-24T08:19:35Z</time>
      </trkpt>
      <trkpt lat="50.10075" lon="3.47224">
        <ele>122.22</ele>
        <time>2015-05-24T08:19:36Z</time>
      </trkpt>
      <trkpt lat="50.10078" lon="3.47211">
        <ele>122.22</ele>
        <time>2015-05-24T08:19:38Z</time>
      </trkpt>
      <trkpt lat="50.1008" lon="3.47206">
        <ele>122.22</ele>
        <time>2015-05-24T08:19:39Z</time>
      </trkpt>
      <trkpt lat="50.10081" lon="3.472">
        <ele>122.22</ele>
        <time>2015-05-24T08:19:40Z</time>
      </trkpt>
      <trkpt lat="50.10082" lon="3.47195">
        <ele>123.67</ele>
        <time>2015-05-24T08:19:41Z</time>
      </trkpt>
      <trkpt lat="50.10082" lon="3.47189">
        <ele>123.67</ele>
        <time>2015-05-24T08:19:42Z</time>
      </trkpt>
      <trkpt lat="50.10083" lon="3.47184">
        <ele>123.67</ele>
        <time>2015-05-24T08:19:43Z</time>
      </trkpt>
      <trkpt lat="50.10084" lon="3.47179">
        <ele>124.15</ele>
        <time>2015-05-24T08:19:44Z</time>
      </trkpt>
      <trkpt lat="50.10092" lon="3.47143">
        <ele>124.15</ele>
        <time>2015-05-24T08:19:51Z</time>
      </trkpt>
      <trkpt lat="50.10093" lon="3.47137">
        <ele>124.15</ele>
        <time>2015-05-24T08:19:52Z</time>
      </trkpt>
      <trkpt lat="50.10095" lon="3.47131">
        <ele>125.11</ele>
        <time>2015-05-24T08:19:53Z</time>
      </trkpt>
      <trkpt lat="50.10116" lon="3.47064">
        <ele>127.99</ele>
        <time>2015-05-24T08:20:05Z</time>
      </trkpt>
      <trkpt lat="50.10128" lon="3.47033">
        <ele>129.92</ele>
        <time>2015-05-24T08:20:11Z</time>
      </trkpt>
      <trkpt lat="50.10143" lon="3.46981">
        <ele>131.36</ele>
        <time>2015-05-24T08:20:24Z</time>
      </trkpt>
      <trkpt lat="50.10154" lon="3.46933">
        <ele>131.36</ele>
        <time>2015-05-24T08:20:34Z</time>
      </trkpt>
      <trkpt lat="50.10166" lon="3.46889">
        <ele>128.95</ele>
        <time>2015-05-24T08:20:41Z</time>
      </trkpt>
      <trkpt lat="50.10169" lon="3.46883">
        <ele>128.95</ele>
        <time>2015-05-24T08:20:42Z</time>
      </trkpt>
      <trkpt lat="50.10171" lon="3.46877">
        <ele>128.95</ele>
        <time>2015-05-24T08:20:43Z</time>
      </trkpt>
      <trkpt lat="50.10183" lon="3.46834">
        <ele>128.47</ele>
        <time>2015-05-24T08:20:50Z</time>
      </trkpt>
      <trkpt lat="50.102" lon="3.46788">
        <ele>127.03</ele>
        <time>2015-05-24T08:21:01Z</time>
      </trkpt>
      <trkpt lat="50.10201" lon="3.46781">
        <ele>127.03</ele>
        <time>2015-05-24T08:21:02Z</time>
      </trkpt>
      <trkpt lat="50.10202" lon="3.46774">
        <ele>127.03</ele>
        <time>2015-05-24T08:21:03Z</time>
      </trkpt>
      <trkpt lat="50.1021" lon="3.46677">
        <ele>128.95</ele>
        <time>2015-05-24T08:21:18Z</time>
      </trkpt>
      <trkpt lat="50.10214" lon="3.46654">
        <ele>127.51</ele>
        <time>2015-05-24T08:21:21Z</time>
      </trkpt>
      <trkpt lat="50.10236" lon="3.46528">
        <ele>124.63</ele>
        <time>2015-05-24T08:21:36Z</time>
      </trkpt>
      <trkpt lat="50.10241" lon="3.46481">
        <ele>124.15</ele>
        <time>2015-05-24T08:21:41Z</time>
      </trkpt>
      <trkpt lat="50.1024" lon="3.4634">
        <ele>123.67</ele>
        <time>2015-05-24T08:21:58Z</time>
      </trkpt>
      <trkpt lat="50.10237" lon="3.46334">
        <ele>123.67</ele>
        <time>2015-05-24T08:21:59Z</time>
      </trkpt>
      <trkpt lat="50.10233" lon="3.46329">
        <ele>123.67</ele>
        <time>2015-05-24T08:22:00Z</time>
      </trkpt>
      <trkpt lat="50.1023" lon="3.46326">
        <ele>123.67</ele>
        <time>2015-05-24T08:22:01Z</time>
      </trkpt>
      <trkpt lat="50.10226" lon="3.46322">
        <ele>123.67</ele>
        <time>2015-05-24T08:22:02Z</time>
      </trkpt>
      <trkpt lat="50.10157" lon="3.46259">
        <ele>126.55</ele>
        <time>2015-05-24T08:22:19Z</time>
      </trkpt>
      <trkpt lat="50.10153" lon="3.46256">
        <ele>127.03</ele>
        <time>2015-05-24T08:22:20Z</time>
      </trkpt>
      <trkpt lat="50.10114" lon="3.46218">
        <ele>127.99</ele>
        <time>2015-05-24T08:22:30Z</time>
      </trkpt>
      <trkpt lat="50.1011" lon="3.46216">
        <ele>127.99</ele>
        <time>2015-05-24T08:22:31Z</time>
      </trkpt>
      <trkpt lat="50.10075" lon="3.46199">
        <ele>127.99</ele>
        <time>2015-05-24T08:22:39Z</time>
      </trkpt>
      <trkpt lat="50.10071" lon="3.46199">
        <ele>127.99</ele>
        <time>2015-05-24T08:22:40Z</time>
      </trkpt>
      <trkpt lat="50.10066" lon="3.46196">
        <ele>127.99</ele>
        <time>2015-05-24T08:22:41Z</time>
      </trkpt>
      <trkpt lat="50.10061" lon="3.46193">
        <ele>127.99</ele>
        <time>2015-05-24T08:22:42Z</time>
      </trkpt>
      <trkpt lat="50.10057" lon="3.46189">
        <ele>127.99</ele>
        <time>2015-05-24T08:22:43Z</time>
      </trkpt>
      <trkpt lat="50.10033" lon="3.46163">
        <ele>128.47</ele>
        <time>2015-05-24T08:22:50Z</time>
      </trkpt>
      <trkpt lat="50.10034" lon="3.46157">
        <ele>128.47</ele>
        <time>2015-05-24T08:22:51Z</time>
      </trkpt>
      <trkpt lat="50.10034" lon="3.46152">
        <ele>128.47</ele>
        <time>2015-05-24T08:22:52Z</time>
      </trkpt>
      <trkpt lat="50.10035" lon="3.46146">
        <ele>128.47</ele>
        <time>2015-05-24T08:22:53Z</time>
      </trkpt>
      <trkpt lat="50.10037" lon="3.4614">
        <ele>128.47</ele>
        <time>2015-05-24T08:22:54Z</time>
      </trkpt>
      <trkpt lat="50.10039" lon="3.46135">
        <ele>128.47</ele>
        <time>2015-05-24T08:22:55Z</time>
      </trkpt>
      <trkpt lat="50.10041" lon="3.46129">
        <ele>128.47</ele>
        <time>2015-05-24T08:22:56Z</time>
      </trkpt>
      <trkpt lat="50.10044" lon="3.46122">
        <ele>128.47</ele>
        <time>2015-05-24T08:22:57Z</time>
      </trkpt>
      <trkpt lat="50.10046" lon="3.46116">
        <ele>128.47</ele>
        <time>2015-05-24T08:22:58Z</time>
      </trkpt>
      <trkpt lat="50.1007" lon="3.46042">
        <ele>130.88</ele>
        <time>2015-05-24T08:23:10Z</time>
      </trkpt>
      <trkpt lat="50.10085" lon="3.45974">
        <ele>130.88</ele>
        <time>2015-05-24T08:23:23Z</time>
      </trkpt>
      <trkpt lat="50.10087" lon="3.4596">
        <ele>130.88</ele>
        <time>2015-05-24T08:23:25Z</time>
      </trkpt>
      <trkpt lat="50.10088" lon="3.45953">
        <ele>129.43</ele>
        <time>2015-05-24T08:23:26Z</time>
      </trkpt>
      <trkpt lat="50.1009" lon="3.45946">
        <ele>129.43</ele>
        <time>2015-05-24T08:23:27Z</time>
      </trkpt>
      <trkpt lat="50.10098" lon="3.45875">
        <ele>128.47</ele>
        <time>2015-05-24T08:23:36Z</time>
      </trkpt>
      <trkpt lat="50.10099" lon="3.45775">
        <ele>127.99</ele>
        <time>2015-05-24T08:23:52Z</time>
      </trkpt>
      <trkpt lat="50.10074" lon="3.45752">
        <ele>129.43</ele>
        <time>2015-05-24T08:24:01Z</time>
      </trkpt>
      <trkpt lat="50.10049" lon="3.45737">
        <ele>129.92</ele>
        <time>2015-05-24T08:24:07Z</time>
      </trkpt>
      <trkpt lat="50.09996" lon="3.4571">
        <ele>131.84</ele>
        <time>2015-05-24T08:24:19Z</time>
      </trkpt>
      <trkpt lat="50.09963" lon="3.4569">
        <ele>133.76</ele>
        <time>2015-05-24T08:24:28Z</time>
      </trkpt>
      <trkpt lat="50.09935" lon="3.45675">
        <ele>135.68</ele>
        <time>2015-05-24T08:24:39Z</time>
      </trkpt>
      <trkpt lat="50.09893" lon="3.45651">
        <ele>136.16</ele>
        <time>2015-05-24T08:24:54Z</time>
      </trkpt>
      <trkpt lat="50.0984" lon="3.45622">
        <ele>136.64</ele>
        <time>2015-05-24T08:25:12Z</time>
      </trkpt>
      <trkpt lat="50.098" lon="3.45599">
        <ele>136.64</ele>
        <time>2015-05-24T08:25:27Z</time>
      </trkpt>
      <trkpt lat="50.0976" lon="3.45577">
        <ele>136.64</ele>
        <time>2015-05-24T08:25:43Z</time>
      </trkpt>
      <trkpt lat="50.09733" lon="3.45562">
        <ele>136.64</ele>
        <time>2015-05-24T08:25:57Z</time>
      </trkpt>
      <trkpt lat="50.09731" lon="3.4556">
        <ele>136.64</ele>
        <time>2015-05-24T08:25:58Z</time>
      </trkpt>
      <trkpt lat="50.0973" lon="3.45559">
        <ele>136.64</ele>
        <time>2015-05-24T08:25:59Z</time>
      </trkpt>
      <trkpt lat="50.09728" lon="3.45558">
        <ele>136.64</ele>
        <time>2015-05-24T08:26:00Z</time>
      </trkpt>
      <trkpt lat="50.09726" lon="3.45557">
        <ele>136.64</ele>
        <time>2015-05-24T08:26:01Z</time>
      </trkpt>
      <trkpt lat="50.09725" lon="3.45556">
        <ele>136.64</ele>
        <time>2015-05-24T08:26:02Z</time>
      </trkpt>
      <trkpt lat="50.09713" lon="3.45549">
        <ele>137.13</ele>
        <time>2015-05-24T08:26:13Z</time>
      </trkpt>
      <trkpt lat="50.09697" lon="3.45541">
        <ele>137.61</ele>
        <time>2015-05-24T08:26:30Z</time>
      </trkpt>
      <trkpt lat="50.09684" lon="3.45535">
        <ele>137.61</ele>
        <time>2015-05-24T08:26:44Z</time>
      </trkpt>
      <trkpt lat="50.09673" lon="3.45528">
        <ele>137.61</ele>
        <time>2015-05-24T08:26:58Z</time>
      </trkpt>
      <trkpt lat="50.09659" lon="3.4552">
        <ele>137.61</ele>
        <time>2015-05-24T08:27:12Z</time>
      </trkpt>
      <trkpt lat="50.09654" lon="3.45517">
        <ele>137.61</ele>
        <time>2015-05-24T08:27:18Z</time>
      </trkpt>
      <trkpt lat="50.09653" lon="3.45516">
        <ele>137.61</ele>
        <time>2015-05-24T08:27:19Z</time>
      </trkpt>
      <trkpt lat="50.09651" lon="3.45515">
        <ele>138.09</ele>
        <time>2015-05-24T08:27:21Z</time>
      </trkpt>
      <trkpt lat="50.09637" lon="3.45512">
        <ele>138.09</ele>
        <time>2015-05-24T08:27:36Z</time>
      </trkpt>
      <trkpt lat="50.09638" lon="3.45511">
        <ele>138.57</ele>
        <time>2015-05-24T08:27:39Z</time>
      </trkpt>
      <trkpt lat="50.09636" lon="3.45509">
        <ele>138.57</ele>
        <time>2015-05-24T08:27:54Z</time>
      </trkpt>
      <trkpt lat="50.09637" lon="3.4551">
        <ele>138.57</ele>
        <time>2015-05-24T08:28:03Z</time>
      </trkpt>
      <trkpt lat="50.09639" lon="3.45496">
        <ele>139.05</ele>
        <time>2015-05-24T08:28:15Z</time>
      </trkpt>
      <trkpt lat="50.09639" lon="3.45494">
        <ele>139.05</ele>
        <time>2015-05-24T08:28:18Z</time>
      </trkpt>
      <trkpt lat="50.09639" lon="3.45492">
        <ele>139.05</ele>
        <time>2015-05-24T08:28:19Z</time>
      </trkpt>
      <trkpt lat="50.09648" lon="3.45462">
        <ele>137.61</ele>
        <time>2015-05-24T08:28:32Z</time>
      </trkpt>
      <trkpt lat="50.09656" lon="3.45426">
        <ele>136.64</ele>
        <time>2015-05-24T08:28:45Z</time>
      </trkpt>
      <trkpt lat="50.09665" lon="3.454">
        <ele>135.2</ele>
        <time>2015-05-24T08:28:56Z</time>
      </trkpt>
      <trkpt lat="50.09679" lon="3.45363">
        <ele>133.76</ele>
        <time>2015-05-24T08:29:09Z</time>
      </trkpt>
      <trkpt lat="50.09696" lon="3.45321">
        <ele>131.84</ele>
        <time>2015-05-24T08:29:24Z</time>
      </trkpt>
      <trkpt lat="50.09707" lon="3.45292">
        <ele>130.4</ele>
        <time>2015-05-24T08:29:33Z</time>
      </trkpt>
      <trkpt lat="50.09714" lon="3.45274">
        <ele>129.92</ele>
        <time>2015-05-24T08:29:39Z</time>
      </trkpt>
      <trkpt lat="50.09729" lon="3.45237">
        <ele>129.43</ele>
        <time>2015-05-24T08:29:54Z</time>
      </trkpt>
      <trkpt lat="50.09738" lon="3.45216">
        <ele>128.95</ele>
        <time>2015-05-24T08:30:06Z</time>
      </trkpt>
      <trkpt lat="50.09738" lon="3.45215">
        <ele>128.95</ele>
        <time>2015-05-24T08:30:27Z</time>
      </trkpt>
      <trkpt lat="50.09738" lon="3.45213">
        <ele>128.95</ele>
        <time>2015-05-24T08:30:39Z</time>
      </trkpt>
      <trkpt lat="50.09739" lon="3.45212">
        <ele>128.47</ele>
        <time>2015-05-24T08:30:52Z</time>
      </trkpt>
      <trkpt lat="50.09739" lon="3.45213">
        <ele>128.47</ele>
        <time>2015-05-24T08:31:02Z</time>
      </trkpt>
      <trkpt lat="50.0974" lon="3.45211">
        <ele>129.43</ele>
        <time>2015-05-24T08:31:14Z</time>
      </trkpt>
      <trkpt lat="50.09742" lon="3.45204">
        <ele>129.43</ele>
        <time>2015-05-24T08:31:26Z</time>
      </trkpt>
      <trkpt lat="50.09745" lon="3.45201">
        <ele>129.92</ele>
        <time>2015-05-24T08:31:30Z</time>
      </trkpt>
      <trkpt lat="50.09753" lon="3.45199">
        <ele>129.92</ele>
        <time>2015-05-24T08:31:44Z</time>
      </trkpt>
      <trkpt lat="50.09742" lon="3.452">
        <ele>129.92</ele>
        <time>2015-05-24T08:31:59Z</time>
      </trkpt>
      <trkpt lat="50.09742" lon="3.452">
        <ele>129.92</ele>
        <time>2015-05-24T08:32:01Z</time>
      </trkpt>
      <trkpt lat="50.09741" lon="3.45195">
        <ele>130.4</ele>
        <time>2015-05-24T08:32:09Z</time>
      </trkpt>
      <trkpt lat="50.09718" lon="3.45179">
        <ele>122.71</ele>
        <time>2015-05-24T08:32:24Z</time>
      </trkpt>
      <trkpt lat="50.09716" lon="3.45177">
        <ele>132.32</ele>
        <time>2015-05-24T08:32:25Z</time>
      </trkpt>
      <trkpt lat="50.09681" lon="3.45148">
        <ele>129.92</ele>
        <time>2015-05-24T08:32:41Z</time>
      </trkpt>
      <trkpt lat="50.09653" lon="3.45124">
        <ele>129.92</ele>
        <time>2015-05-24T08:32:55Z</time>
      </trkpt>
      <trkpt lat="50.09625" lon="3.45103">
        <ele>129.92</ele>
        <time>2015-05-24T08:33:08Z</time>
      </trkpt>
      <trkpt lat="50.09591" lon="3.45074">
        <ele>129.92</ele>
        <time>2015-05-24T08:33:24Z</time>
      </trkpt>
      <trkpt lat="50.09571" lon="3.45041">
        <ele>129.92</ele>
        <time>2015-05-24T08:33:38Z</time>
      </trkpt>
      <trkpt lat="50.09533" lon="3.45037">
        <ele>129.92</ele>
        <time>2015-05-24T08:33:53Z</time>
      </trkpt>
      <trkpt lat="50.09486" lon="3.45047">
        <ele>131.36</ele>
        <time>2015-05-24T08:34:11Z</time>
      </trkpt>
      <trkpt lat="50.09444" lon="3.45048">
        <ele>130.88</ele>
        <time>2015-05-24T08:34:26Z</time>
      </trkpt>
      <trkpt lat="50.09432" lon="3.45049">
        <ele>130.88</ele>
        <time>2015-05-24T08:34:31Z</time>
      </trkpt>
      <trkpt lat="50.09406" lon="3.45089">
        <ele>131.84</ele>
        <time>2015-05-24T08:34:45Z</time>
      </trkpt>
      <trkpt lat="50.09372" lon="3.45111">
        <ele>133.28</ele>
        <time>2015-05-24T08:34:59Z</time>
      </trkpt>
      <trkpt lat="50.09368" lon="3.45117">
        <ele>133.76</ele>
        <time>2015-05-24T08:35:01Z</time>
      </trkpt>
      <trkpt lat="50.09357" lon="3.45104">
        <ele>134.72</ele>
        <time>2015-05-24T08:35:07Z</time>
      </trkpt>
      <trkpt lat="50.09321" lon="3.45035">
        <ele>134.72</ele>
        <time>2015-05-24T08:35:21Z</time>
      </trkpt>
      <trkpt lat="50.0927" lon="3.44959">
        <ele>134.72</ele>
        <time>2015-05-24T08:35:36Z</time>
      </trkpt>
      <trkpt lat="50.09237" lon="3.44888">
        <ele>135.68</ele>
        <time>2015-05-24T08:35:50Z</time>
      </trkpt>
      <trkpt lat="50.09211" lon="3.4485">
        <ele>134.24</ele>
        <time>2015-05-24T08:35:57Z</time>
      </trkpt>
      <trkpt lat="50.09208" lon="3.44845">
        <ele>134.24</ele>
        <time>2015-05-24T08:35:58Z</time>
      </trkpt>
      <trkpt lat="50.09205" lon="3.44838">
        <ele>134.24</ele>
        <time>2015-05-24T08:35:59Z</time>
      </trkpt>
      <trkpt lat="50.09193" lon="3.44806">
        <ele>133.76</ele>
        <time>2015-05-24T08:36:04Z</time>
      </trkpt>
      <trkpt lat="50.09175" lon="3.44732">
        <ele>133.76</ele>
        <time>2015-05-24T08:36:15Z</time>
      </trkpt>
      <trkpt lat="50.09173" lon="3.44726">
        <ele>133.76</ele>
        <time>2015-05-24T08:36:16Z</time>
      </trkpt>
      <trkpt lat="50.09171" lon="3.44719">
        <ele>133.76</ele>
        <time>2015-05-24T08:36:17Z</time>
      </trkpt>
      <trkpt lat="50.0917" lon="3.44713">
        <ele>133.76</ele>
        <time>2015-05-24T08:36:18Z</time>
      </trkpt>
      <trkpt lat="50.09169" lon="3.44706">
        <ele>133.76</ele>
        <time>2015-05-24T08:36:19Z</time>
      </trkpt>
      <trkpt lat="50.09168" lon="3.44699">
        <ele>133.76</ele>
        <time>2015-05-24T08:36:20Z</time>
      </trkpt>
      <trkpt lat="50.09166" lon="3.44693">
        <ele>133.76</ele>
        <time>2015-05-24T08:36:21Z</time>
      </trkpt>
      <trkpt lat="50.09165" lon="3.44686">
        <ele>133.76</ele>
        <time>2015-05-24T08:36:22Z</time>
      </trkpt>
      <trkpt lat="50.09163" lon="3.44679">
        <ele>133.76</ele>
        <time>2015-05-24T08:36:23Z</time>
      </trkpt>
      <trkpt lat="50.09162" lon="3.44673">
        <ele>133.76</ele>
        <time>2015-05-24T08:36:24Z</time>
      </trkpt>
      <trkpt lat="50.09158" lon="3.4466">
        <ele>133.76</ele>
        <time>2015-05-24T08:36:26Z</time>
      </trkpt>
      <trkpt lat="50.09129" lon="3.4456">
        <ele>135.68</ele>
        <time>2015-05-24T08:36:43Z</time>
      </trkpt>
      <trkpt lat="50.09077" lon="3.44505">
        <ele>136.64</ele>
        <time>2015-05-24T08:36:59Z</time>
      </trkpt>
      <trkpt lat="50.09028" lon="3.44452">
        <ele>137.61</ele>
        <time>2015-05-24T08:37:13Z</time>
      </trkpt>
      <trkpt lat="50.08976" lon="3.44361">
        <ele>139.53</ele>
        <time>2015-05-24T08:37:31Z</time>
      </trkpt>
      <trkpt lat="50.08946" lon="3.44313">
        <ele>141.45</ele>
        <time>2015-05-24T08:37:41Z</time>
      </trkpt>
      <trkpt lat="50.08943" lon="3.44309">
        <ele>141.45</ele>
        <time>2015-05-24T08:37:42Z</time>
      </trkpt>
      <trkpt lat="50.08897" lon="3.44241">
        <ele>143.37</ele>
        <time>2015-05-24T08:38:01Z</time>
      </trkpt>
      <trkpt lat="50.08864" lon="3.44193">
        <ele>145.78</ele>
        <time>2015-05-24T08:38:17Z</time>
      </trkpt>
      <trkpt lat="50.08832" lon="3.44169">
        <ele>147.22</ele>
        <time>2015-05-24T08:38:28Z</time>
      </trkpt>
      <trkpt lat="50.08789" lon="3.44135">
        <ele>147.7</ele>
        <time>2015-05-24T08:38:43Z</time>
      </trkpt>
      <trkpt lat="50.08781" lon="3.44125">
        <ele>148.18</ele>
        <time>2015-05-24T08:38:47Z</time>
      </trkpt>
      <trkpt lat="50.0878" lon="3.44124">
        <ele>148.18</ele>
        <time>2015-05-24T08:38:48Z</time>
      </trkpt>
      <trkpt lat="50.08778" lon="3.44122">
        <ele>148.18</ele>
        <time>2015-05-24T08:38:49Z</time>
      </trkpt>
      <trkpt lat="50.08775" lon="3.44119">
        <ele>148.18</ele>
        <time>2015-05-24T08:38:50Z</time>
      </trkpt>
      <trkpt lat="50.08772" lon="3.44115">
        <ele>148.18</ele>
        <time>2015-05-24T08:38:51Z</time>
      </trkpt>
      <trkpt lat="50.08765" lon="3.44103">
        <ele>148.66</ele>
        <time>2015-05-24T08:38:54Z</time>
      </trkpt>
      <trkpt lat="50.08765" lon="3.44098">
        <ele>148.66</ele>
        <time>2015-05-24T08:38:55Z</time>
      </trkpt>
      <trkpt lat="50.08766" lon="3.44093">
        <ele>148.66</ele>
        <time>2015-05-24T08:38:56Z</time>
      </trkpt>
      <trkpt lat="50.08791" lon="3.43993">
        <ele>148.66</ele>
        <time>2015-05-24T08:39:12Z</time>
      </trkpt>
      <trkpt lat="50.08798" lon="3.43966">
        <ele>147.22</ele>
        <time>2015-05-24T08:39:16Z</time>
      </trkpt>
      <trkpt lat="50.0881" lon="3.43906">
        <ele>147.22</ele>
        <time>2015-05-24T08:39:25Z</time>
      </trkpt>
      <trkpt lat="50.08819" lon="3.43861">
        <ele>148.66</ele>
        <time>2015-05-24T08:39:32Z</time>
      </trkpt>
      <trkpt lat="50.08828" lon="3.43806">
        <ele>148.66</ele>
        <time>2015-05-24T08:39:41Z</time>
      </trkpt>
      <trkpt lat="50.08833" lon="3.437">
        <ele>148.66</ele>
        <time>2015-05-24T08:39:56Z</time>
      </trkpt>
      <trkpt lat="50.0882" lon="3.43586">
        <ele>148.66</ele>
        <time>2015-05-24T08:40:11Z</time>
      </trkpt>
      <trkpt lat="50.08804" lon="3.43531">
        <ele>148.66</ele>
        <time>2015-05-24T08:40:20Z</time>
      </trkpt>
      <trkpt lat="50.08782" lon="3.43474">
        <ele>149.62</ele>
        <time>2015-05-24T08:40:30Z</time>
      </trkpt>
      <trkpt lat="50.08752" lon="3.434">
        <ele>151.06</ele>
        <time>2015-05-24T08:40:45Z</time>
      </trkpt>
      <trkpt lat="50.08707" lon="3.43333">
        <ele>151.54</ele>
        <time>2015-05-24T08:41:01Z</time>
      </trkpt>
      <trkpt lat="50.08674" lon="3.43277">
        <ele>152.03</ele>
        <time>2015-05-24T08:41:13Z</time>
      </trkpt>
      <trkpt lat="50.08662" lon="3.43242">
        <ele>152.51</ele>
        <time>2015-05-24T08:41:19Z</time>
      </trkpt>
      <trkpt lat="50.0866" lon="3.43237">
        <ele>152.51</ele>
        <time>2015-05-24T08:41:20Z</time>
      </trkpt>
      <trkpt lat="50.08627" lon="3.43125">
        <ele>153.95</ele>
        <time>2015-05-24T08:41:40Z</time>
      </trkpt>
      <trkpt lat="50.08593" lon="3.43009">
        <ele>154.43</ele>
        <time>2015-05-24T08:41:57Z</time>
      </trkpt>
      <trkpt lat="50.08581" lon="3.42967">
        <ele>152.99</ele>
        <time>2015-05-24T08:42:02Z</time>
      </trkpt>
      <trkpt lat="50.08531" lon="3.42824">
        <ele>151.54</ele>
        <time>2015-05-24T08:42:18Z</time>
      </trkpt>
      <trkpt lat="50.08482" lon="3.42684">
        <ele>151.06</ele>
        <time>2015-05-24T08:42:34Z</time>
      </trkpt>
      <trkpt lat="50.08411" lon="3.42491">
        <ele>149.62</ele>
        <time>2015-05-24T08:42:56Z</time>
      </trkpt>
      <trkpt lat="50.08364" lon="3.42358">
        <ele>149.62</ele>
        <time>2015-05-24T08:43:10Z</time>
      </trkpt>
      <trkpt lat="50.08336" lon="3.42237">
        <ele>146.74</ele>
        <time>2015-05-24T08:43:21Z</time>
      </trkpt>
      <trkpt lat="50.08322" lon="3.42095">
        <ele>143.37</ele>
        <time>2015-05-24T08:43:33Z</time>
      </trkpt>
      <trkpt lat="50.08315" lon="3.4199">
        <ele>140.01</ele>
        <time>2015-05-24T08:43:41Z</time>
      </trkpt>
      <trkpt lat="50.08302" lon="3.4191">
        <ele>137.13</ele>
        <time>2015-05-24T08:43:47Z</time>
      </trkpt>
      <trkpt lat="50.08295" lon="3.41882">
        <ele>136.16</ele>
        <time>2015-05-24T08:43:49Z</time>
      </trkpt>
      <trkpt lat="50.08285" lon="3.41842">
        <ele>134.72</ele>
        <time>2015-05-24T08:43:52Z</time>
      </trkpt>
      <trkpt lat="50.08249" lon="3.41701">
        <ele>131.36</ele>
        <time>2015-05-24T08:44:03Z</time>
      </trkpt>
      <trkpt lat="50.08211" lon="3.41584">
        <ele>129.92</ele>
        <time>2015-05-24T08:44:14Z</time>
      </trkpt>
      <trkpt lat="50.08166" lon="3.41503">
        <ele>129.92</ele>
        <time>2015-05-24T08:44:24Z</time>
      </trkpt>
      <trkpt lat="50.08162" lon="3.41495">
        <ele>129.92</ele>
        <time>2015-05-24T08:44:25Z</time>
      </trkpt>
      <trkpt lat="50.08157" lon="3.41487">
        <ele>129.92</ele>
        <time>2015-05-24T08:44:26Z</time>
      </trkpt>
      <trkpt lat="50.08153" lon="3.41479">
        <ele>129.92</ele>
        <time>2015-05-24T08:44:27Z</time>
      </trkpt>
      <trkpt lat="50.08148" lon="3.41471">
        <ele>129.92</ele>
        <time>2015-05-24T08:44:28Z</time>
      </trkpt>
      <trkpt lat="50.08144" lon="3.41462">
        <ele>129.92</ele>
        <time>2015-05-24T08:44:29Z</time>
      </trkpt>
      <trkpt lat="50.08139" lon="3.41453">
        <ele>129.92</ele>
        <time>2015-05-24T08:44:30Z</time>
      </trkpt>
      <trkpt lat="50.08129" lon="3.41435">
        <ele>131.84</ele>
        <time>2015-05-24T08:44:32Z</time>
      </trkpt>
      <trkpt lat="50.08125" lon="3.41426">
        <ele>132.8</ele>
        <time>2015-05-24T08:44:33Z</time>
      </trkpt>
      <trkpt lat="50.08117" lon="3.4141">
        <ele>133.76</ele>
        <time>2015-05-24T08:44:35Z</time>
      </trkpt>
      <trkpt lat="50.08109" lon="3.41394">
        <ele>133.76</ele>
        <time>2015-05-24T08:44:37Z</time>
      </trkpt>
      <trkpt lat="50.08106" lon="3.41386">
        <ele>133.76</ele>
        <time>2015-05-24T08:44:38Z</time>
      </trkpt>
      <trkpt lat="50.0808" lon="3.4133">
        <ele>137.13</ele>
        <time>2015-05-24T08:44:47Z</time>
      </trkpt>
      <trkpt lat="50.08077" lon="3.41324">
        <ele>137.13</ele>
        <time>2015-05-24T08:44:48Z</time>
      </trkpt>
      <trkpt lat="50.08064" lon="3.41297">
        <ele>138.09</ele>
        <time>2015-05-24T08:44:53Z</time>
      </trkpt>
      <trkpt lat="50.0802" lon="3.41208">
        <ele>139.05</ele>
        <time>2015-05-24T08:45:11Z</time>
      </trkpt>
      <trkpt lat="50.07979" lon="3.4113">
        <ele>140.01</ele>
        <time>2015-05-24T08:45:28Z</time>
      </trkpt>
      <trkpt lat="50.07935" lon="3.41043">
        <ele>138.57</ele>
        <time>2015-05-24T08:45:44Z</time>
      </trkpt>
      <trkpt lat="50.07891" lon="3.40946">
        <ele>135.68</ele>
        <time>2015-05-24T08:45:56Z</time>
      </trkpt>
      <trkpt lat="50.07857" lon="3.40852">
        <ele>133.76</ele>
        <time>2015-05-24T08:46:05Z</time>
      </trkpt>
      <trkpt lat="50.07855" lon="3.40841">
        <ele>132.8</ele>
        <time>2015-05-24T08:46:06Z</time>
      </trkpt>
      <trkpt lat="50.07853" lon="3.40828">
        <ele>132.8</ele>
        <time>2015-05-24T08:46:07Z</time>
      </trkpt>
      <trkpt lat="50.07859" lon="3.40686">
        <ele>130.88</ele>
        <time>2015-05-24T08:46:19Z</time>
      </trkpt>
      <trkpt lat="50.07885" lon="3.40496">
        <ele>129.43</ele>
        <time>2015-05-24T08:46:38Z</time>
      </trkpt>
      <trkpt lat="50.07894" lon="3.40428">
        <ele>128.95</ele>
        <time>2015-05-24T08:46:46Z</time>
      </trkpt>
      <trkpt lat="50.07896" lon="3.40421">
        <ele>128.95</ele>
        <time>2015-05-24T08:46:47Z</time>
      </trkpt>
      <trkpt lat="50.07898" lon="3.40412">
        <ele>128.95</ele>
        <time>2015-05-24T08:46:48Z</time>
      </trkpt>
      <trkpt lat="50.07908" lon="3.40293">
        <ele>128.47</ele>
        <time>2015-05-24T08:47:01Z</time>
      </trkpt>
      <trkpt lat="50.07905" lon="3.40257">
        <ele>128.47</ele>
        <time>2015-05-24T08:47:05Z</time>
      </trkpt>
      <trkpt lat="50.07903" lon="3.40248">
        <ele>128.47</ele>
        <time>2015-05-24T08:47:06Z</time>
      </trkpt>
      <trkpt lat="50.079" lon="3.4024">
        <ele>128.47</ele>
        <time>2015-05-24T08:47:07Z</time>
      </trkpt>
      <trkpt lat="50.07894" lon="3.40226">
        <ele>127.99</ele>
        <time>2015-05-24T08:47:09Z</time>
      </trkpt>
      <trkpt lat="50.07887" lon="3.40214">
        <ele>127.99</ele>
        <time>2015-05-24T08:47:11Z</time>
      </trkpt>
      <trkpt lat="50.07883" lon="3.40209">
        <ele>127.99</ele>
        <time>2015-05-24T08:47:12Z</time>
      </trkpt>
      <trkpt lat="50.07874" lon="3.40201">
        <ele>127.99</ele>
        <time>2015-05-24T08:47:14Z</time>
      </trkpt>
      <trkpt lat="50.0787" lon="3.40198">
        <ele>127.99</ele>
        <time>2015-05-24T08:47:15Z</time>
      </trkpt>
      <trkpt lat="50.07867" lon="3.40195">
        <ele>127.51</ele>
        <time>2015-05-24T08:47:16Z</time>
      </trkpt>
      <trkpt lat="50.07861" lon="3.4018">
        <ele>127.51</ele>
        <time>2015-05-24T08:47:21Z</time>
      </trkpt>
      <trkpt lat="50.07862" lon="3.40175">
        <ele>127.51</ele>
        <time>2015-05-24T08:47:22Z</time>
      </trkpt>
      <trkpt lat="50.07863" lon="3.40171">
        <ele>127.51</ele>
        <time>2015-05-24T08:47:23Z</time>
      </trkpt>
      <trkpt lat="50.07863" lon="3.40166">
        <ele>127.51</ele>
        <time>2015-05-24T08:47:24Z</time>
      </trkpt>
      <trkpt lat="50.07864" lon="3.40161">
        <ele>127.51</ele>
        <time>2015-05-24T08:47:25Z</time>
      </trkpt>
      <trkpt lat="50.07873" lon="3.40122">
        <ele>127.51</ele>
        <time>2015-05-24T08:47:36Z</time>
      </trkpt>
      <trkpt lat="50.07873" lon="3.4012">
        <ele>127.51</ele>
        <time>2015-05-24T08:47:37Z</time>
      </trkpt>
      <trkpt lat="50.07874" lon="3.40117">
        <ele>127.51</ele>
        <time>2015-05-24T08:47:39Z</time>
      </trkpt>
      <trkpt lat="50.07874" lon="3.40114">
        <ele>127.51</ele>
        <time>2015-05-24T08:47:40Z</time>
      </trkpt>
      <trkpt lat="50.07875" lon="3.4011">
        <ele>127.51</ele>
        <time>2015-05-24T08:47:41Z</time>
      </trkpt>
      <trkpt lat="50.07876" lon="3.40107">
        <ele>127.51</ele>
        <time>2015-05-24T08:47:42Z</time>
      </trkpt>
      <trkpt lat="50.07877" lon="3.40102">
        <ele>127.03</ele>
        <time>2015-05-24T08:47:43Z</time>
      </trkpt>
      <trkpt lat="50.07878" lon="3.40097">
        <ele>127.03</ele>
        <time>2015-05-24T08:47:44Z</time>
      </trkpt>
      <trkpt lat="50.07887" lon="3.40038">
        <ele>126.55</ele>
        <time>2015-05-24T08:47:56Z</time>
      </trkpt>
      <trkpt lat="50.07886" lon="3.40033">
        <ele>126.55</ele>
        <time>2015-05-24T08:47:57Z</time>
      </trkpt>
      <trkpt lat="50.07886" lon="3.40027">
        <ele>126.55</ele>
        <time>2015-05-24T08:47:58Z</time>
      </trkpt>
      <trkpt lat="50.07887" lon="3.40022">
        <ele>126.07</ele>
        <time>2015-05-24T08:47:59Z</time>
      </trkpt>
      <trkpt lat="50.0789" lon="3.40018">
        <ele>126.07</ele>
        <time>2015-05-24T08:48:00Z</time>
      </trkpt>
      <trkpt lat="50.07893" lon="3.40015">
        <ele>126.07</ele>
        <time>2015-05-24T08:48:01Z</time>
      </trkpt>
      <trkpt lat="50.07896" lon="3.4001">
        <ele>126.07</ele>
        <time>2015-05-24T08:48:02Z</time>
      </trkpt>
      <trkpt lat="50.07898" lon="3.40004">
        <ele>126.07</ele>
        <time>2015-05-24T08:48:03Z</time>
      </trkpt>
      <trkpt lat="50.07899" lon="3.39999">
        <ele>126.07</ele>
        <time>2015-05-24T08:48:04Z</time>
      </trkpt>
      <trkpt lat="50.079" lon="3.39992">
        <ele>126.07</ele>
        <time>2015-05-24T08:48:05Z</time>
      </trkpt>
      <trkpt lat="50.07901" lon="3.39985">
        <ele>126.07</ele>
        <time>2015-05-24T08:48:06Z</time>
      </trkpt>
      <trkpt lat="50.07902" lon="3.39955">
        <ele>126.07</ele>
        <time>2015-05-24T08:48:10Z</time>
      </trkpt>
      <trkpt lat="50.07908" lon="3.39858">
        <ele>126.07</ele>
        <time>2015-05-24T08:48:24Z</time>
      </trkpt>
      <trkpt lat="50.07913" lon="3.39799">
        <ele>126.07</ele>
        <time>2015-05-24T08:48:32Z</time>
      </trkpt>
      <trkpt lat="50.07932" lon="3.39675">
        <ele>126.07</ele>
        <time>2015-05-24T08:48:48Z</time>
      </trkpt>
      <trkpt lat="50.07933" lon="3.39667">
        <ele>126.07</ele>
        <time>2015-05-24T08:48:49Z</time>
      </trkpt>
      <trkpt lat="50.07932" lon="3.39521">
        <ele>126.07</ele>
        <time>2015-05-24T08:49:06Z</time>
      </trkpt>
      <trkpt lat="50.07932" lon="3.39511">
        <ele>126.07</ele>
        <time>2015-05-24T08:49:07Z</time>
      </trkpt>
      <trkpt lat="50.07932" lon="3.39503">
        <ele>126.07</ele>
        <time>2015-05-24T08:49:08Z</time>
      </trkpt>
      <trkpt lat="50.07929" lon="3.39361">
        <ele>126.07</ele>
        <time>2015-05-24T08:49:24Z</time>
      </trkpt>
      <trkpt lat="50.07926" lon="3.39262">
        <ele>125.11</ele>
        <time>2015-05-24T08:49:36Z</time>
      </trkpt>
      <trkpt lat="50.07924" lon="3.39256">
        <ele>125.11</ele>
        <time>2015-05-24T08:49:37Z</time>
      </trkpt>
      <trkpt lat="50.07922" lon="3.3925">
        <ele>125.11</ele>
        <time>2015-05-24T08:49:38Z</time>
      </trkpt>
      <trkpt lat="50.07919" lon="3.39245">
        <ele>125.11</ele>
        <time>2015-05-24T08:49:39Z</time>
      </trkpt>
      <trkpt lat="50.07915" lon="3.3924">
        <ele>125.11</ele>
        <time>2015-05-24T08:49:40Z</time>
      </trkpt>
      <trkpt lat="50.0791" lon="3.39235">
        <ele>125.11</ele>
        <time>2015-05-24T08:49:41Z</time>
      </trkpt>
      <trkpt lat="50.07906" lon="3.39233">
        <ele>125.11</ele>
        <time>2015-05-24T08:49:42Z</time>
      </trkpt>
      <trkpt lat="50.07902" lon="3.39231">
        <ele>125.11</ele>
        <time>2015-05-24T08:49:43Z</time>
      </trkpt>
      <trkpt lat="50.07896" lon="3.39229">
        <ele>125.11</ele>
        <time>2015-05-24T08:49:44Z</time>
      </trkpt>
      <trkpt lat="50.07811" lon="3.39191">
        <ele>124.63</ele>
        <time>2015-05-24T08:49:59Z</time>
      </trkpt>
      <trkpt lat="50.07766" lon="3.39133">
        <ele>124.15</ele>
        <time>2015-05-24T08:50:10Z</time>
      </trkpt>
      <trkpt lat="50.07763" lon="3.39125">
        <ele>124.15</ele>
        <time>2015-05-24T08:50:11Z</time>
      </trkpt>
      <trkpt lat="50.07761" lon="3.39117">
        <ele>124.15</ele>
        <time>2015-05-24T08:50:12Z</time>
      </trkpt>
      <trkpt lat="50.0776" lon="3.39109">
        <ele>124.15</ele>
        <time>2015-05-24T08:50:13Z</time>
      </trkpt>
      <trkpt lat="50.07759" lon="3.39101">
        <ele>124.15</ele>
        <time>2015-05-24T08:50:14Z</time>
      </trkpt>
      <trkpt lat="50.07757" lon="3.39084">
        <ele>124.15</ele>
        <time>2015-05-24T08:50:16Z</time>
      </trkpt>
      <trkpt lat="50.07759" lon="3.39076">
        <ele>124.15</ele>
        <time>2015-05-24T08:50:17Z</time>
      </trkpt>
      <trkpt lat="50.07761" lon="3.39067">
        <ele>124.15</ele>
        <time>2015-05-24T08:50:18Z</time>
      </trkpt>
      <trkpt lat="50.07762" lon="3.3906">
        <ele>124.15</ele>
        <time>2015-05-24T08:50:19Z</time>
      </trkpt>
      <trkpt lat="50.07763" lon="3.39051">
        <ele>123.67</ele>
        <time>2015-05-24T08:50:20Z</time>
      </trkpt>
      <trkpt lat="50.07764" lon="3.39043">
        <ele>123.67</ele>
        <time>2015-05-24T08:50:21Z</time>
      </trkpt>
      <trkpt lat="50.07775" lon="3.38979">
        <ele>123.67</ele>
        <time>2015-05-24T08:50:29Z</time>
      </trkpt>
      <trkpt lat="50.07801" lon="3.38853">
        <ele>123.19</ele>
        <time>2015-05-24T08:50:44Z</time>
      </trkpt>
      <trkpt lat="50.07826" lon="3.38736">
        <ele>123.67</ele>
        <time>2015-05-24T08:50:59Z</time>
      </trkpt>
      <trkpt lat="50.07841" lon="3.38642">
        <ele>124.63</ele>
        <time>2015-05-24T08:51:12Z</time>
      </trkpt>
      <trkpt lat="50.0785" lon="3.38499">
        <ele>125.11</ele>
        <time>2015-05-24T08:51:30Z</time>
      </trkpt>
      <trkpt lat="50.07855" lon="3.38462">
        <ele>125.11</ele>
        <time>2015-05-24T08:51:34Z</time>
      </trkpt>
      <trkpt lat="50.0786" lon="3.38434">
        <ele>123.67</ele>
        <time>2015-05-24T08:51:37Z</time>
      </trkpt>
      <trkpt lat="50.07867" lon="3.38304">
        <ele>121.74</ele>
        <time>2015-05-24T08:51:50Z</time>
      </trkpt>
      <trkpt lat="50.07864" lon="3.38129">
        <ele>121.74</ele>
        <time>2015-05-24T08:52:06Z</time>
      </trkpt>
      <trkpt lat="50.07881" lon="3.37988">
        <ele>121.26</ele>
        <time>2015-05-24T08:52:19Z</time>
      </trkpt>
      <trkpt lat="50.07883" lon="3.37978">
        <ele>121.26</ele>
        <time>2015-05-24T08:52:20Z</time>
      </trkpt>
      <trkpt lat="50.07911" lon="3.3786">
        <ele>122.71</ele>
        <time>2015-05-24T08:52:34Z</time>
      </trkpt>
      <trkpt lat="50.07922" lon="3.37786">
        <ele>123.67</ele>
        <time>2015-05-24T08:52:44Z</time>
      </trkpt>
      <trkpt lat="50.07922" lon="3.37779">
        <ele>123.67</ele>
        <time>2015-05-24T08:52:45Z</time>
      </trkpt>
      <trkpt lat="50.0791" lon="3.37649">
        <ele>124.15</ele>
        <time>2015-05-24T08:53:03Z</time>
      </trkpt>
      <trkpt lat="50.07917" lon="3.37506">
        <ele>122.71</ele>
        <time>2015-05-24T08:53:21Z</time>
      </trkpt>
      <trkpt lat="50.0792" lon="3.37479">
        <ele>122.22</ele>
        <time>2015-05-24T08:53:24Z</time>
      </trkpt>
      <trkpt lat="50.07923" lon="3.37461">
        <ele>121.74</ele>
        <time>2015-05-24T08:53:26Z</time>
      </trkpt>
      <trkpt lat="50.07947" lon="3.37283">
        <ele>119.34</ele>
        <time>2015-05-24T08:53:45Z</time>
      </trkpt>
      <trkpt lat="50.0798" lon="3.37131">
        <ele>118.38</ele>
        <time>2015-05-24T08:54:01Z</time>
      </trkpt>
      <trkpt lat="50.08025" lon="3.37014">
        <ele>117.42</ele>
        <time>2015-05-24T08:54:14Z</time>
      </trkpt>
      <trkpt lat="50.08085" lon="3.36844">
        <ele>117.42</ele>
        <time>2015-05-24T08:54:34Z</time>
      </trkpt>
      <trkpt lat="50.08109" lon="3.36716">
        <ele>117.42</ele>
        <time>2015-05-24T08:54:50Z</time>
      </trkpt>
      <trkpt lat="50.08145" lon="3.36603">
        <ele>117.42</ele>
        <time>2015-05-24T08:55:06Z</time>
      </trkpt>
      <trkpt lat="50.08189" lon="3.36481">
        <ele>117.42</ele>
        <time>2015-05-24T08:55:24Z</time>
      </trkpt>
      <trkpt lat="50.08196" lon="3.3646">
        <ele>118.86</ele>
        <time>2015-05-24T08:55:27Z</time>
      </trkpt>
      <trkpt lat="50.08229" lon="3.36311">
        <ele>118.86</ele>
        <time>2015-05-24T08:55:47Z</time>
      </trkpt>
      <trkpt lat="50.08273" lon="3.36164">
        <ele>117.9</ele>
        <time>2015-05-24T08:56:06Z</time>
      </trkpt>
      <trkpt lat="50.08276" lon="3.36157">
        <ele>117.9</ele>
        <time>2015-05-24T08:56:07Z</time>
      </trkpt>
      <trkpt lat="50.08285" lon="3.36137">
        <ele>117.9</ele>
        <time>2015-05-24T08:56:10Z</time>
      </trkpt>
      <trkpt lat="50.08302" lon="3.36107">
        <ele>117.42</ele>
        <time>2015-05-24T08:56:16Z</time>
      </trkpt>
      <trkpt lat="50.08302" lon="3.36099">
        <ele>116.94</ele>
        <time>2015-05-24T08:56:17Z</time>
      </trkpt>
      <trkpt lat="50.08299" lon="3.36093">
        <ele>116.94</ele>
        <time>2015-05-24T08:56:18Z</time>
      </trkpt>
      <trkpt lat="50.08273" lon="3.36037">
        <ele>113.09</ele>
        <time>2015-05-24T08:56:25Z</time>
      </trkpt>
      <trkpt lat="50.0827" lon="3.36027">
        <ele>116.46</ele>
        <time>2015-05-24T08:56:26Z</time>
      </trkpt>
      <trkpt lat="50.08238" lon="3.35884">
        <ele>115.01</ele>
        <time>2015-05-24T08:56:41Z</time>
      </trkpt>
      <trkpt lat="50.08206" lon="3.35781">
        <ele>115.01</ele>
        <time>2015-05-24T08:56:55Z</time>
      </trkpt>
      <trkpt lat="50.0815" lon="3.35682">
        <ele>115.98</ele>
        <time>2015-05-24T08:57:12Z</time>
      </trkpt>
      <trkpt lat="50.08082" lon="3.35575">
        <ele>117.9</ele>
        <time>2015-05-24T08:57:31Z</time>
      </trkpt>
      <trkpt lat="50.08023" lon="3.35491">
        <ele>119.82</ele>
        <time>2015-05-24T08:57:50Z</time>
      </trkpt>
      <trkpt lat="50.07969" lon="3.3542">
        <ele>122.22</ele>
        <time>2015-05-24T08:58:08Z</time>
      </trkpt>
      <trkpt lat="50.07924" lon="3.35361">
        <ele>124.15</ele>
        <time>2015-05-24T08:58:24Z</time>
      </trkpt>
      <trkpt lat="50.07891" lon="3.35318">
        <ele>125.59</ele>
        <time>2015-05-24T08:58:36Z</time>
      </trkpt>
      <trkpt lat="50.07861" lon="3.35241">
        <ele>127.03</ele>
        <time>2015-05-24T08:58:52Z</time>
      </trkpt>
      <trkpt lat="50.07852" lon="3.35198">
        <ele>127.51</ele>
        <time>2015-05-24T08:59:01Z</time>
      </trkpt>
      <trkpt lat="50.07854" lon="3.35195">
        <ele>127.51</ele>
        <time>2015-05-24T08:59:02Z</time>
      </trkpt>
      <trkpt lat="50.07857" lon="3.35193">
        <ele>127.99</ele>
        <time>2015-05-24T08:59:03Z</time>
      </trkpt>
      <trkpt lat="50.07873" lon="3.35191">
        <ele>128.47</ele>
        <time>2015-05-24T08:59:08Z</time>
      </trkpt>
      <trkpt lat="50.07912" lon="3.35187">
        <ele>130.88</ele>
        <time>2015-05-24T08:59:20Z</time>
      </trkpt>
      <trkpt lat="50.07929" lon="3.35178">
        <ele>131.36</ele>
        <time>2015-05-24T08:59:26Z</time>
      </trkpt>
      <trkpt lat="50.0793" lon="3.35175">
        <ele>131.36</ele>
        <time>2015-05-24T08:59:27Z</time>
      </trkpt>
      <trkpt lat="50.0793" lon="3.35172">
        <ele>131.84</ele>
        <time>2015-05-24T08:59:28Z</time>
      </trkpt>
      <trkpt lat="50.07917" lon="3.35127">
        <ele>132.8</ele>
        <time>2015-05-24T08:59:40Z</time>
      </trkpt>
      <trkpt lat="50.07899" lon="3.35067">
        <ele>133.76</ele>
        <time>2015-05-24T08:59:55Z</time>
      </trkpt>
      <trkpt lat="50.0789" lon="3.35037">
        <ele>133.76</ele>
        <time>2015-05-24T09:00:02Z</time>
      </trkpt>
      <trkpt lat="50.07891" lon="3.35032">
        <ele>133.76</ele>
        <time>2015-05-24T09:00:03Z</time>
      </trkpt>
      <trkpt lat="50.07893" lon="3.35028">
        <ele>133.76</ele>
        <time>2015-05-24T09:00:04Z</time>
      </trkpt>
      <trkpt lat="50.07895" lon="3.35025">
        <ele>133.76</ele>
        <time>2015-05-24T09:00:05Z</time>
      </trkpt>
      <trkpt lat="50.07897" lon="3.35023">
        <ele>134.24</ele>
        <time>2015-05-24T09:00:06Z</time>
      </trkpt>
      <trkpt lat="50.07899" lon="3.3502">
        <ele>134.24</ele>
        <time>2015-05-24T09:00:07Z</time>
      </trkpt>
      <trkpt lat="50.07922" lon="3.34997">
        <ele>136.64</ele>
        <time>2015-05-24T09:00:15Z</time>
      </trkpt>
      <trkpt lat="50.07925" lon="3.34994">
        <ele>136.64</ele>
        <time>2015-05-24T09:00:16Z</time>
      </trkpt>
      <trkpt lat="50.07964" lon="3.3496">
        <ele>139.53</ele>
        <time>2015-05-24T09:00:31Z</time>
      </trkpt>
      <trkpt lat="50.07995" lon="3.34918">
        <ele>141.45</ele>
        <time>2015-05-24T09:00:46Z</time>
      </trkpt>
      <trkpt lat="50.08031" lon="3.34849">
        <ele>141.45</ele>
        <time>2015-05-24T09:01:02Z</time>
      </trkpt>
      <trkpt lat="50.08057" lon="3.34756">
        <ele>141.93</ele>
        <time>2015-05-24T09:01:20Z</time>
      </trkpt>
      <trkpt lat="50.08037" lon="3.34697">
        <ele>143.37</ele>
        <time>2015-05-24T09:01:35Z</time>
      </trkpt>
      <trkpt lat="50.08031" lon="3.34673">
        <ele>143.85</ele>
        <time>2015-05-24T09:01:42Z</time>
      </trkpt>
      <trkpt lat="50.08036" lon="3.34667">
        <ele>144.34</ele>
        <time>2015-05-24T09:01:46Z</time>
      </trkpt>
      <trkpt lat="50.08046" lon="3.34655">
        <ele>146.26</ele>
        <time>2015-05-24T09:01:58Z</time>
      </trkpt>
      <trkpt lat="50.08045" lon="3.34656">
        <ele>145.78</ele>
        <time>2015-05-24T09:02:29Z</time>
      </trkpt>
      <trkpt lat="50.08046" lon="3.34655">
        <ele>146.26</ele>
        <time>2015-05-24T09:03:00Z</time>
      </trkpt>
      <trkpt lat="50.08045" lon="3.34654">
        <ele>146.26</ele>
        <time>2015-05-24T09:03:28Z</time>
      </trkpt>
      <trkpt lat="50.08046" lon="3.34656">
        <ele>146.74</ele>
        <time>2015-05-24T09:03:58Z</time>
      </trkpt>
      <trkpt lat="50.08047" lon="3.34657">
        <ele>146.74</ele>
        <time>2015-05-24T09:04:22Z</time>
      </trkpt>
      <trkpt lat="50.08047" lon="3.34655">
        <ele>146.74</ele>
        <time>2015-05-24T09:04:50Z</time>
      </trkpt>
      <trkpt lat="50.08047" lon="3.34655">
        <ele>147.22</ele>
        <time>2015-05-24T09:05:24Z</time>
      </trkpt>
      <trkpt lat="50.08047" lon="3.34655">
        <ele>147.22</ele>
        <time>2015-05-24T09:05:55Z</time>
      </trkpt>
      <trkpt lat="50.08046" lon="3.34652">
        <ele>147.22</ele>
        <time>2015-05-24T09:06:31Z</time>
      </trkpt>
      <trkpt lat="50.08045" lon="3.34657">
        <ele>147.22</ele>
        <time>2015-05-24T09:07:17Z</time>
      </trkpt>
      <trkpt lat="50.08043" lon="3.34659">
        <ele>147.22</ele>
        <time>2015-05-24T09:07:51Z</time>
      </trkpt>
      <trkpt lat="50.08043" lon="3.34657">
        <ele>147.22</ele>
        <time>2015-05-24T09:08:25Z</time>
      </trkpt>
      <trkpt lat="50.08041" lon="3.34657">
        <ele>147.22</ele>
        <time>2015-05-24T09:09:03Z</time>
      </trkpt>
      <trkpt lat="50.08043" lon="3.34657">
        <ele>147.22</ele>
        <time>2015-05-24T09:09:24Z</time>
      </trkpt>
      <trkpt lat="50.08043" lon="3.3466">
        <ele>147.22</ele>
        <time>2015-05-24T09:09:26Z</time>
      </trkpt>
      <trkpt lat="50.08036" lon="3.34666">
        <ele>147.22</ele>
        <time>2015-05-24T09:09:30Z</time>
      </trkpt>
      <trkpt lat="50.08029" lon="3.3467">
        <ele>146.26</ele>
        <time>2015-05-24T09:09:33Z</time>
      </trkpt>
      <trkpt lat="50.08023" lon="3.34668">
        <ele>145.3</ele>
        <time>2015-05-24T09:09:37Z</time>
      </trkpt>
      <trkpt lat="50.07993" lon="3.34626">
        <ele>145.3</ele>
        <time>2015-05-24T09:09:51Z</time>
      </trkpt>
      <trkpt lat="50.07954" lon="3.34601">
        <ele>145.3</ele>
        <time>2015-05-24T09:10:04Z</time>
      </trkpt>
      <trkpt lat="50.07954" lon="3.34605">
        <ele>145.3</ele>
        <time>2015-05-24T09:10:09Z</time>
      </trkpt>
      <trkpt lat="50.07955" lon="3.34606">
        <ele>145.3</ele>
        <time>2015-05-24T09:10:10Z</time>
      </trkpt>
      <trkpt lat="50.07957" lon="3.34608">
        <ele>145.3</ele>
        <time>2015-05-24T09:10:11Z</time>
      </trkpt>
      <trkpt lat="50.07969" lon="3.34614">
        <ele>145.3</ele>
        <time>2015-05-24T09:10:15Z</time>
      </trkpt>
      <trkpt lat="50.07974" lon="3.34617">
        <ele>145.3</ele>
        <time>2015-05-24T09:10:16Z</time>
      </trkpt>
      <trkpt lat="50.08022" lon="3.34667">
        <ele>145.3</ele>
        <time>2015-05-24T09:10:31Z</time>
      </trkpt>
      <trkpt lat="50.08026" lon="3.34674">
        <ele>145.3</ele>
        <time>2015-05-24T09:10:33Z</time>
      </trkpt>
      <trkpt lat="50.08029" lon="3.34674">
        <ele>145.3</ele>
        <time>2015-05-24T09:10:34Z</time>
      </trkpt>
      <trkpt lat="50.08035" lon="3.34669">
        <ele>144.82</ele>
        <time>2015-05-24T09:10:37Z</time>
      </trkpt>
      <trkpt lat="50.08046" lon="3.34655">
        <ele>147.22</ele>
        <time>2015-05-24T09:10:47Z</time>
      </trkpt>
      <trkpt lat="50.08045" lon="3.34658">
        <ele>147.22</ele>
        <time>2015-05-24T09:11:54Z</time>
      </trkpt>
      <trkpt lat="50.08041" lon="3.34659">
        <ele>147.22</ele>
        <time>2015-05-24T09:12:43Z</time>
      </trkpt>
      <trkpt lat="50.08043" lon="3.34656">
        <ele>147.22</ele>
        <time>2015-05-24T09:13:32Z</time>
      </trkpt>
      <trkpt lat="50.08042" lon="3.34656">
        <ele>147.22</ele>
        <time>2015-05-24T09:14:19Z</time>
      </trkpt>
      <trkpt lat="50.08045" lon="3.34658">
        <ele>147.22</ele>
        <time>2015-05-24T09:15:10Z</time>
      </trkpt>
      <trkpt lat="50.08044" lon="3.34655">
        <ele>147.22</ele>
        <time>2015-05-24T09:16:01Z</time>
      </trkpt>
      <trkpt lat="50.08045" lon="3.34657">
        <ele>147.22</ele>
        <time>2015-05-24T09:16:30Z</time>
      </trkpt>
      <trkpt lat="50.08045" lon="3.34656">
        <ele>147.22</ele>
        <time>2015-05-24T09:17:05Z</time>
      </trkpt>
      <trkpt lat="50.08045" lon="3.34655">
        <ele>147.22</ele>
        <time>2015-05-24T09:17:42Z</time>
      </trkpt>
      <trkpt lat="50.08044" lon="3.34655">
        <ele>147.22</ele>
        <time>2015-05-24T09:18:28Z</time>
      </trkpt>
      <trkpt lat="50.08044" lon="3.34657">
        <ele>147.22</ele>
        <time>2015-05-24T09:19:17Z</time>
      </trkpt>
      <trkpt lat="50.08047" lon="3.34659">
        <ele>147.22</ele>
        <time>2015-05-24T09:20:09Z</time>
      </trkpt>
      <trkpt lat="50.08048" lon="3.34659">
        <ele>147.22</ele>
        <time>2015-05-24T09:20:47Z</time>
      </trkpt>
      <trkpt lat="50.08047" lon="3.34656">
        <ele>147.22</ele>
        <time>2015-05-24T09:21:20Z</time>
      </trkpt>
      <trkpt lat="50.08047" lon="3.34656">
        <ele>146.74</ele>
        <time>2015-05-24T09:21:45Z</time>
      </trkpt>
      <trkpt lat="50.08045" lon="3.34658">
        <ele>146.74</ele>
        <time>2015-05-24T09:22:39Z</time>
      </trkpt>
      <trkpt lat="50.08044" lon="3.3466">
        <ele>146.74</ele>
        <time>2015-05-24T09:23:10Z</time>
      </trkpt>
      <trkpt lat="50.08046" lon="3.34657">
        <ele>146.74</ele>
        <time>2015-05-24T09:23:44Z</time>
      </trkpt>
      <trkpt lat="50.08046" lon="3.34657">
        <ele>146.74</ele>
        <time>2015-05-24T09:24:17Z</time>
      </trkpt>
      <trkpt lat="50.08047" lon="3.34656">
        <ele>146.74</ele>
        <time>2015-05-24T09:25:06Z</time>
      </trkpt>
      <trkpt lat="50.08047" lon="3.34657">
        <ele>146.74</ele>
        <time>2015-05-24T09:25:47Z</time>
      </trkpt>
      <trkpt lat="50.08046" lon="3.34657">
        <ele>146.74</ele>
        <time>2015-05-24T09:26:26Z</time>
      </trkpt>
      <trkpt lat="50.08045" lon="3.34657">
        <ele>146.26</ele>
        <time>2015-05-24T09:27:03Z</time>
      </trkpt>
      <trkpt lat="50.08045" lon="3.34656">
        <ele>146.26</ele>
        <time>2015-05-24T09:27:35Z</time>
      </trkpt>
      <trkpt lat="50.08046" lon="3.34656">
        <ele>146.26</ele>
        <time>2015-05-24T09:28:18Z</time>
      </trkpt>
      <trkpt lat="50.08046" lon="3.34658">
        <ele>146.26</ele>
        <time>2015-05-24T09:28:49Z</time>
      </trkpt>
      <trkpt lat="50.08044" lon="3.34659">
        <ele>146.26</ele>
        <time>2015-05-24T09:29:23Z</time>
      </trkpt>
      <trkpt lat="50.08044" lon="3.34657">
        <ele>146.26</ele>
        <time>2015-05-24T09:30:04Z</time>
      </trkpt>
      <trkpt lat="50.08043" lon="3.34658">
        <ele>146.26</ele>
        <time>2015-05-24T09:30:41Z</time>
      </trkpt>
      <trkpt lat="50.08043" lon="3.34659">
        <ele>146.74</ele>
        <time>2015-05-24T09:31:24Z</time>
      </trkpt>
      <trkpt lat="50.08043" lon="3.34659">
        <ele>146.74</ele>
        <time>2015-05-24T09:32:07Z</time>
      </trkpt>
      <trkpt lat="50.08045" lon="3.34656">
        <ele>146.74</ele>
        <time>2015-05-24T09:32:47Z</time>
      </trkpt>
      <trkpt lat="50.08046" lon="3.34657">
        <ele>146.74</ele>
        <time>2015-05-24T09:33:35Z</time>
      </trkpt>
      <trkpt lat="50.08044" lon="3.34661">
        <ele>146.74</ele>
        <time>2015-05-24T09:33:48Z</time>
      </trkpt>
      <trkpt lat="50.08043" lon="3.34662">
        <ele>146.74</ele>
        <time>2015-05-24T09:34:12Z</time>
      </trkpt>
      <trkpt lat="50.08041" lon="3.34664">
        <ele>146.74</ele>
        <time>2015-05-24T09:34:16Z</time>
      </trkpt>
      <trkpt lat="50.08038" lon="3.34667">
        <ele>145.3</ele>
        <time>2015-05-24T09:34:20Z</time>
      </trkpt>
      <trkpt lat="50.08038" lon="3.34666">
        <ele>145.3</ele>
        <time>2015-05-24T09:34:40Z</time>
      </trkpt>
      <trkpt lat="50.08032" lon="3.3467">
        <ele>144.82</ele>
        <time>2015-05-24T09:34:55Z</time>
      </trkpt>
      <trkpt lat="50.08029" lon="3.34672">
        <ele>144.34</ele>
        <time>2015-05-24T09:35:11Z</time>
      </trkpt>
      <trkpt lat="50.08028" lon="3.34671">
        <ele>144.34</ele>
        <time>2015-05-24T09:35:37Z</time>
      </trkpt>
      <trkpt lat="50.08027" lon="3.34673">
        <ele>144.82</ele>
        <time>2015-05-24T09:36:17Z</time>
      </trkpt>
      <trkpt lat="50.08028" lon="3.34674">
        <ele>144.82</ele>
        <time>2015-05-24T09:36:41Z</time>
      </trkpt>
      <trkpt lat="50.08028" lon="3.34673">
        <ele>144.82</ele>
        <time>2015-05-24T09:37:09Z</time>
      </trkpt>
      <trkpt lat="50.0803" lon="3.34675">
        <ele>144.82</ele>
        <time>2015-05-24T09:37:29Z</time>
      </trkpt>
      <trkpt lat="50.0803" lon="3.34675">
        <ele>144.82</ele>
        <time>2015-05-24T09:37:48Z</time>
      </trkpt>
      <trkpt lat="50.08031" lon="3.34674">
        <ele>144.34</ele>
        <time>2015-05-24T09:38:19Z</time>
      </trkpt>
      <trkpt lat="50.0803" lon="3.34675">
        <ele>144.34</ele>
        <time>2015-05-24T09:38:39Z</time>
      </trkpt>
      <trkpt lat="50.08029" lon="3.34673">
        <ele>144.34</ele>
        <time>2015-05-24T09:38:45Z</time>
      </trkpt>
      <trkpt lat="50.08026" lon="3.34669">
        <ele>144.34</ele>
        <time>2015-05-24T09:38:49Z</time>
      </trkpt>
      <trkpt lat="50.08024" lon="3.3467">
        <ele>144.34</ele>
        <time>2015-05-24T09:38:51Z</time>
      </trkpt>
      <trkpt lat="50.08023" lon="3.34664">
        <ele>144.34</ele>
        <time>2015-05-24T09:38:56Z</time>
      </trkpt>
      <trkpt lat="50.08021" lon="3.34659">
        <ele>144.34</ele>
        <time>2015-05-24T09:38:58Z</time>
      </trkpt>
      <trkpt lat="50.08019" lon="3.34654">
        <ele>144.34</ele>
        <time>2015-05-24T09:38:59Z</time>
      </trkpt>
      <trkpt lat="50.08017" lon="3.3465">
        <ele>144.34</ele>
        <time>2015-05-24T09:39:00Z</time>
      </trkpt>
      <trkpt lat="50.08014" lon="3.34645">
        <ele>144.34</ele>
        <time>2015-05-24T09:39:01Z</time>
      </trkpt>
      <trkpt lat="50.08011" lon="3.34642">
        <ele>145.78</ele>
        <time>2015-05-24T09:39:02Z</time>
      </trkpt>
      <trkpt lat="50.08008" lon="3.34638">
        <ele>145.78</ele>
        <time>2015-05-24T09:39:03Z</time>
      </trkpt>
      <trkpt lat="50.08004" lon="3.34636">
        <ele>145.78</ele>
        <time>2015-05-24T09:39:04Z</time>
      </trkpt>
      <trkpt lat="50.08" lon="3.34633">
        <ele>145.78</ele>
        <time>2015-05-24T09:39:05Z</time>
      </trkpt>
      <trkpt lat="50.07996" lon="3.3463">
        <ele>145.78</ele>
        <time>2015-05-24T09:39:06Z</time>
      </trkpt>
      <trkpt lat="50.07989" lon="3.34624">
        <ele>145.78</ele>
        <time>2015-05-24T09:39:08Z</time>
      </trkpt>
      <trkpt lat="50.07984" lon="3.34622">
        <ele>145.78</ele>
        <time>2015-05-24T09:39:09Z</time>
      </trkpt>
      <trkpt lat="50.07913" lon="3.34578">
        <ele>145.78</ele>
        <time>2015-05-24T09:39:24Z</time>
      </trkpt>
      <trkpt lat="50.0783" lon="3.34513">
        <ele>144.34</ele>
        <time>2015-05-24T09:39:41Z</time>
      </trkpt>
      <trkpt lat="50.07742" lon="3.34435">
        <ele>142.89</ele>
        <time>2015-05-24T09:40:00Z</time>
      </trkpt>
      <trkpt lat="50.07737" lon="3.34431">
        <ele>142.89</ele>
        <time>2015-05-24T09:40:01Z</time>
      </trkpt>
      <trkpt lat="50.07732" lon="3.34429">
        <ele>142.89</ele>
        <time>2015-05-24T09:40:02Z</time>
      </trkpt>
      <trkpt lat="50.07728" lon="3.34428">
        <ele>142.89</ele>
        <time>2015-05-24T09:40:03Z</time>
      </trkpt>
      <trkpt lat="50.07726" lon="3.34427">
        <ele>142.41</ele>
        <time>2015-05-24T09:40:04Z</time>
      </trkpt>
      <trkpt lat="50.07724" lon="3.34427">
        <ele>142.41</ele>
        <time>2015-05-24T09:40:05Z</time>
      </trkpt>
      <trkpt lat="50.07703" lon="3.34408">
        <ele>141.93</ele>
        <time>2015-05-24T09:40:12Z</time>
      </trkpt>
      <trkpt lat="50.07698" lon="3.34405">
        <ele>141.93</ele>
        <time>2015-05-24T09:40:13Z</time>
      </trkpt>
      <trkpt lat="50.07615" lon="3.34364">
        <ele>140.49</ele>
        <time>2015-05-24T09:40:27Z</time>
      </trkpt>
      <trkpt lat="50.07548" lon="3.34339">
        <ele>139.05</ele>
        <time>2015-05-24T09:40:39Z</time>
      </trkpt>
      <trkpt lat="50.07542" lon="3.34335">
        <ele>139.05</ele>
        <time>2015-05-24T09:40:40Z</time>
      </trkpt>
      <trkpt lat="50.07537" lon="3.3433">
        <ele>139.05</ele>
        <time>2015-05-24T09:40:41Z</time>
      </trkpt>
      <trkpt lat="50.07532" lon="3.34325">
        <ele>139.05</ele>
        <time>2015-05-24T09:40:42Z</time>
      </trkpt>
      <trkpt lat="50.07527" lon="3.34319">
        <ele>139.05</ele>
        <time>2015-05-24T09:40:43Z</time>
      </trkpt>
      <trkpt lat="50.07523" lon="3.34312">
        <ele>139.05</ele>
        <time>2015-05-24T09:40:44Z</time>
      </trkpt>
      <trkpt lat="50.07475" lon="3.34206">
        <ele>135.2</ele>
        <time>2015-05-24T09:40:57Z</time>
      </trkpt>
      <trkpt lat="50.07431" lon="3.34076">
        <ele>131.84</ele>
        <time>2015-05-24T09:41:10Z</time>
      </trkpt>
      <trkpt lat="50.07417" lon="3.34049">
        <ele>131.36</ele>
        <time>2015-05-24T09:41:13Z</time>
      </trkpt>
      <trkpt lat="50.07412" lon="3.34042">
        <ele>131.36</ele>
        <time>2015-05-24T09:41:14Z</time>
      </trkpt>
      <trkpt lat="50.07406" lon="3.34035">
        <ele>131.36</ele>
        <time>2015-05-24T09:41:15Z</time>
      </trkpt>
      <trkpt lat="50.07399" lon="3.34029">
        <ele>131.36</ele>
        <time>2015-05-24T09:41:16Z</time>
      </trkpt>
      <trkpt lat="50.07393" lon="3.34025">
        <ele>131.36</ele>
        <time>2015-05-24T09:41:17Z</time>
      </trkpt>
      <trkpt lat="50.07385" lon="3.3402">
        <ele>131.36</ele>
        <time>2015-05-24T09:41:18Z</time>
      </trkpt>
      <trkpt lat="50.07296" lon="3.33955">
        <ele>131.36</ele>
        <time>2015-05-24T09:41:33Z</time>
      </trkpt>
      <trkpt lat="50.0728" lon="3.33931">
        <ele>131.36</ele>
        <time>2015-05-24T09:41:37Z</time>
      </trkpt>
      <trkpt lat="50.07274" lon="3.33918">
        <ele>132.32</ele>
        <time>2015-05-24T09:41:39Z</time>
      </trkpt>
      <trkpt lat="50.07234" lon="3.33828">
        <ele>133.76</ele>
        <time>2015-05-24T09:41:55Z</time>
      </trkpt>
      <trkpt lat="50.07225" lon="3.33806">
        <ele>133.76</ele>
        <time>2015-05-24T09:41:59Z</time>
      </trkpt>
      <trkpt lat="50.07168" lon="3.33736">
        <ele>133.76</ele>
        <time>2015-05-24T09:42:15Z</time>
      </trkpt>
      <trkpt lat="50.07132" lon="3.33701">
        <ele>132.32</ele>
        <time>2015-05-24T09:42:24Z</time>
      </trkpt>
      <trkpt lat="50.07052" lon="3.33654">
        <ele>131.36</ele>
        <time>2015-05-24T09:42:41Z</time>
      </trkpt>
      <trkpt lat="50.07018" lon="3.33632">
        <ele>130.88</ele>
        <time>2015-05-24T09:42:48Z</time>
      </trkpt>
      <trkpt lat="50.07009" lon="3.33621">
        <ele>129.92</ele>
        <time>2015-05-24T09:42:50Z</time>
      </trkpt>
      <trkpt lat="50.07005" lon="3.33616">
        <ele>129.43</ele>
        <time>2015-05-24T09:42:51Z</time>
      </trkpt>
      <trkpt lat="50.06979" lon="3.33582">
        <ele>128.47</ele>
        <time>2015-05-24T09:42:57Z</time>
      </trkpt>
      <trkpt lat="50.06976" lon="3.33578">
        <ele>127.99</ele>
        <time>2015-05-24T09:42:58Z</time>
      </trkpt>
      <trkpt lat="50.06974" lon="3.33572">
        <ele>127.51</ele>
        <time>2015-05-24T09:42:59Z</time>
      </trkpt>
      <trkpt lat="50.06973" lon="3.33567">
        <ele>127.51</ele>
        <time>2015-05-24T09:43:00Z</time>
      </trkpt>
      <trkpt lat="50.06975" lon="3.3356">
        <ele>127.03</ele>
        <time>2015-05-24T09:43:01Z</time>
      </trkpt>
      <trkpt lat="50.06979" lon="3.33555">
        <ele>127.03</ele>
        <time>2015-05-24T09:43:02Z</time>
      </trkpt>
      <trkpt lat="50.06982" lon="3.33552">
        <ele>126.07</ele>
        <time>2015-05-24T09:43:03Z</time>
      </trkpt>
      <trkpt lat="50.0701" lon="3.3352">
        <ele>125.59</ele>
        <time>2015-05-24T09:43:10Z</time>
      </trkpt>
      <trkpt lat="50.07021" lon="3.33502">
        <ele>124.63</ele>
        <time>2015-05-24T09:43:13Z</time>
      </trkpt>
      <trkpt lat="50.07064" lon="3.33412">
        <ele>122.71</ele>
        <time>2015-05-24T09:43:26Z</time>
      </trkpt>
      <trkpt lat="50.07068" lon="3.33412">
        <ele>122.22</ele>
        <time>2015-05-24T09:43:27Z</time>
      </trkpt>
      <trkpt lat="50.07071" lon="3.33414">
        <ele>122.22</ele>
        <time>2015-05-24T09:43:28Z</time>
      </trkpt>
      <trkpt lat="50.07074" lon="3.33417">
        <ele>122.22</ele>
        <time>2015-05-24T09:43:29Z</time>
      </trkpt>
      <trkpt lat="50.07076" lon="3.3342">
        <ele>123.19</ele>
        <time>2015-05-24T09:43:30Z</time>
      </trkpt>
      <trkpt lat="50.07078" lon="3.33423">
        <ele>123.67</ele>
        <time>2015-05-24T09:43:31Z</time>
      </trkpt>
      <trkpt lat="50.07079" lon="3.33424">
        <ele>124.15</ele>
        <time>2015-05-24T09:43:43Z</time>
      </trkpt>
      <trkpt lat="50.07078" lon="3.33425">
        <ele>124.15</ele>
        <time>2015-05-24T09:43:53Z</time>
      </trkpt>
      <trkpt lat="50.07077" lon="3.33428">
        <ele>124.15</ele>
        <time>2015-05-24T09:44:09Z</time>
      </trkpt>
      <trkpt lat="50.07076" lon="3.33436">
        <ele>124.15</ele>
        <time>2015-05-24T09:44:23Z</time>
      </trkpt>
      <trkpt lat="50.07076" lon="3.33439">
        <ele>124.15</ele>
        <time>2015-05-24T09:44:35Z</time>
      </trkpt>
      <trkpt lat="50.07076" lon="3.3344">
        <ele>124.15</ele>
        <time>2015-05-24T09:44:36Z</time>
      </trkpt>
      <trkpt lat="50.07077" lon="3.33443">
        <ele>123.67</ele>
        <time>2015-05-24T09:44:51Z</time>
      </trkpt>
      <trkpt lat="50.07077" lon="3.33443">
        <ele>120.3</ele>
        <time>2015-05-24T09:44:52Z</time>
      </trkpt>
      <trkpt lat="50.07077" lon="3.33443">
        <ele>127.03</ele>
        <time>2015-05-24T09:44:53Z</time>
      </trkpt>
      <trkpt lat="50.07076" lon="3.33443">
        <ele>123.67</ele>
        <time>2015-05-24T09:44:55Z</time>
      </trkpt>
    </trkseg>
  </trk>
</gpx>